<?xml version="1.0" encoding="UTF-8" standalone="no" ?>
<gpx xmlns="http://www.topografix.com/GPX/1/1" xmlns:xsi="http://www.w3.org/2001/XMLSchema-instance" xsi:schemaLocation="http://www.topografix.com/GPX/1/1 http://www.topografix.com/GPX/1/1/gpx.xsd" version="1.1" creator="VisuGPX - https://www.visugpx.com">
  <metadata>
    <name>Mornant parcours noir</name>
    <desc><![CDATA[Mornant parcours noir]]></desc>
  </metadata>
  <trk>
    <name><![CDATA[mornant-noir]]></name>
    <trkseg>
      <trkpt lat="45.64843" lon="4.67521">
        <ele>470</ele>
        <time>2004-11-27T12:07:35Z</time>
      </trkpt>
      <trkpt lat="45.64842" lon="4.67409">
        <ele>471</ele>
        <time>2004-11-27T12:07:56Z</time>
      </trkpt>
      <trkpt lat="45.64928" lon="4.67432">
        <ele>463</ele>
      </trkpt>
      <trkpt lat="45.64967" lon="4.67472">
        <ele>458.5</ele>
      </trkpt>
      <trkpt lat="45.65048" lon="4.67585">
        <ele>448.1</ele>
      </trkpt>
      <trkpt lat="45.65215" lon="4.67695">
        <ele>431</ele>
        <time>2004-11-27T12:08:52Z</time>
      </trkpt>
      <trkpt lat="45.6527" lon="4.67713">
        <ele>428.7</ele>
      </trkpt>
      <trkpt lat="45.65304" lon="4.6775">
        <ele>426.9</ele>
      </trkpt>
      <trkpt lat="45.65338" lon="4.67794">
        <ele>425</ele>
        <time>2004-11-27T12:09:16Z</time>
      </trkpt>
      <trkpt lat="45.65403" lon="4.6771">
        <ele>421.9</ele>
      </trkpt>
      <trkpt lat="45.65462" lon="4.67699">
        <ele>419.9</ele>
      </trkpt>
      <trkpt lat="45.65569" lon="4.67652">
        <ele>416</ele>
        <time>2004-11-27T12:10:01Z</time>
      </trkpt>
      <trkpt lat="45.65751" lon="4.67606">
        <ele>416</ele>
        <time>2004-11-27T12:10:38Z</time>
      </trkpt>
      <trkpt lat="45.6579" lon="4.67679">
        <ele>390</ele>
        <time>2004-11-27T12:11:12Z</time>
      </trkpt>
      <trkpt lat="45.65821" lon="4.67802">
        <ele>388.7</ele>
      </trkpt>
      <trkpt lat="45.65855" lon="4.67858">
        <ele>388</ele>
        <time>2004-11-27T12:11:44Z</time>
      </trkpt>
      <trkpt lat="45.65922" lon="4.67943">
        <ele>388</ele>
        <time>2004-11-27T12:12:16Z</time>
      </trkpt>
      <trkpt lat="45.66014" lon="4.68015">
        <ele>389</ele>
        <time>2004-11-27T12:13:03Z</time>
      </trkpt>
      <trkpt lat="45.6612" lon="4.68108">
        <ele>402</ele>
        <time>2004-11-27T12:13:55Z</time>
      </trkpt>
      <trkpt lat="45.6616" lon="4.68128">
        <ele>404</ele>
      </trkpt>
      <trkpt lat="45.66245" lon="4.68096">
        <ele>408</ele>
        <time>2004-11-27T12:14:34Z</time>
      </trkpt>
      <trkpt lat="45.66402" lon="4.67981">
        <ele>417</ele>
      </trkpt>
      <trkpt lat="45.66415" lon="4.67927">
        <ele>419</ele>
        <time>2004-11-27T12:16:08Z</time>
      </trkpt>
      <trkpt lat="45.66419" lon="4.67632">
        <ele>422</ele>
        <time>2004-11-27T12:16:50Z</time>
      </trkpt>
      <trkpt lat="45.66479" lon="4.67481">
        <ele>416</ele>
        <time>2004-11-27T12:17:22Z</time>
      </trkpt>
      <trkpt lat="45.66544" lon="4.67452">
        <ele>415.3</ele>
      </trkpt>
      <trkpt lat="45.66557" lon="4.67424">
        <ele>415</ele>
        <time>2004-11-27T12:17:41Z</time>
      </trkpt>
      <trkpt lat="45.66564" lon="4.67321">
        <ele>421</ele>
        <time>2004-11-27T12:18:05Z</time>
      </trkpt>
      <trkpt lat="45.66601" lon="4.67282">
        <ele>421</ele>
      </trkpt>
      <trkpt lat="45.6666" lon="4.67285">
        <ele>421</ele>
        <time>2004-11-27T12:18:33Z</time>
      </trkpt>
      <trkpt lat="45.66684" lon="4.67256">
        <ele>420.9</ele>
      </trkpt>
      <trkpt lat="45.66701" lon="4.67228">
        <ele>420.8</ele>
      </trkpt>
      <trkpt lat="45.66769" lon="4.67196">
        <ele>420.6</ele>
      </trkpt>
      <trkpt lat="45.66948" lon="4.67133">
        <ele>420</ele>
        <time>2004-11-27T12:19:37Z</time>
      </trkpt>
      <trkpt lat="45.6685" lon="4.66915">
        <ele>417</ele>
        <time>2004-11-27T12:20:30Z</time>
      </trkpt>
      <trkpt lat="45.66741" lon="4.66748">
        <ele>429</ele>
        <time>2004-11-27T12:21:57Z</time>
      </trkpt>
      <trkpt lat="45.66723" lon="4.66809">
        <ele>430.5</ele>
      </trkpt>
      <trkpt lat="45.66688" lon="4.6686">
        <ele>432</ele>
        <time>2004-11-27T12:22:27Z</time>
      </trkpt>
      <trkpt lat="45.66644" lon="4.66806">
        <ele>434.7</ele>
      </trkpt>
      <trkpt lat="45.66647" lon="4.66771">
        <ele>435.9</ele>
      </trkpt>
      <trkpt lat="45.66628" lon="4.66713">
        <ele>438</ele>
        <time>2004-11-27T12:23:01Z</time>
      </trkpt>
      <trkpt lat="45.66605" lon="4.66657">
        <ele>439.9</ele>
      </trkpt>
      <trkpt lat="45.6649" lon="4.66582">
        <ele>445</ele>
        <time>2004-11-27T12:23:49Z</time>
      </trkpt>
      <trkpt lat="45.66347" lon="4.66586">
        <ele>447</ele>
        <time>2004-11-27T12:24:17Z</time>
      </trkpt>
      <trkpt lat="45.66316" lon="4.66612">
        <ele>446.6</ele>
      </trkpt>
      <trkpt lat="45.66311" lon="4.66599">
        <ele>446.5</ele>
      </trkpt>
      <trkpt lat="45.66269" lon="4.66594">
        <ele>446</ele>
        <time>2004-11-27T12:24:40Z</time>
      </trkpt>
      <trkpt lat="45.66276" lon="4.66482">
        <ele>453</ele>
        <time>2004-11-27T12:25:24Z</time>
      </trkpt>
      <trkpt lat="45.66297" lon="4.66426">
        <ele>456.2</ele>
      </trkpt>
      <trkpt lat="45.66238" lon="4.66382">
        <ele>461</ele>
        <time>2004-11-27T12:26:12Z</time>
      </trkpt>
      <trkpt lat="45.66189" lon="4.66325">
        <ele>470.5</ele>
      </trkpt>
      <trkpt lat="45.66074" lon="4.66242">
        <ele>490</ele>
        <time>2004-11-27T12:28:58Z</time>
      </trkpt>
      <trkpt lat="45.66095" lon="4.66115">
        <ele>501</ele>
        <time>2004-11-27T12:29:51Z</time>
      </trkpt>
      <trkpt lat="45.66082" lon="4.65929">
        <ele>512</ele>
        <time>2004-11-27T12:30:48Z</time>
      </trkpt>
      <trkpt lat="45.66018" lon="4.65779">
        <ele>509</ele>
        <time>2004-11-27T12:31:19Z</time>
      </trkpt>
      <trkpt lat="45.65867" lon="4.65624">
        <ele>519</ele>
        <time>2004-11-27T12:32:13Z</time>
      </trkpt>
      <trkpt lat="45.65835" lon="4.65513">
        <ele>527</ele>
        <time>2004-11-27T12:32:55Z</time>
      </trkpt>
      <trkpt lat="45.65733" lon="4.65353">
        <ele>528.3</ele>
      </trkpt>
      <trkpt lat="45.6571" lon="4.65348">
        <ele>528.5</ele>
      </trkpt>
      <trkpt lat="45.65657" lon="4.65299">
        <ele>529</ele>
        <time>2004-11-27T12:34:04Z</time>
      </trkpt>
      <trkpt lat="45.65551" lon="4.6522">
        <ele>535</ele>
        <time>2004-11-27T12:34:32Z</time>
      </trkpt>
      <trkpt lat="45.65688" lon="4.65021">
        <ele>524</ele>
        <time>2004-11-27T12:35:05Z</time>
      </trkpt>
      <trkpt lat="45.6584" lon="4.64885">
        <ele>519</ele>
        <time>2004-11-27T12:35:42Z</time>
      </trkpt>
      <trkpt lat="45.65899" lon="4.64803">
        <ele>503.2</ele>
      </trkpt>
      <trkpt lat="45.65915" lon="4.64708">
        <ele>490</ele>
        <time>2004-11-27T12:36:09Z</time>
      </trkpt>
      <trkpt lat="45.6592" lon="4.64543">
        <ele>496</ele>
        <time>2004-11-27T12:36:28Z</time>
      </trkpt>
      <trkpt lat="45.65913" lon="4.64473">
        <ele>490.2</ele>
      </trkpt>
      <trkpt lat="45.65942" lon="4.64455">
        <ele>486.5</ele>
      </trkpt>
      <trkpt lat="45.65966" lon="4.64392">
        <ele>480.6</ele>
      </trkpt>
      <trkpt lat="45.65972" lon="4.64337">
        <ele>476</ele>
        <time>2004-11-27T12:37:02Z</time>
      </trkpt>
      <trkpt lat="45.65981" lon="4.64306">
        <ele>469.7</ele>
      </trkpt>
      <trkpt lat="45.65944" lon="4.64234">
        <ele>452.9</ele>
      </trkpt>
      <trkpt lat="45.65913" lon="4.64219">
        <ele>444</ele>
        <time>2004-11-27T12:37:22Z</time>
      </trkpt>
      <trkpt lat="45.65917" lon="4.64153">
        <ele>437.4</ele>
      </trkpt>
      <trkpt lat="45.65967" lon="4.64123">
        <ele>429.6</ele>
        <time>2004-11-27T12:37:46Z</time>
      </trkpt>
      <trkpt lat="45.66028" lon="4.64103">
        <ele>420.8</ele>
      </trkpt>
      <trkpt lat="45.6599" lon="4.64002">
        <ele>409.3</ele>
      </trkpt>
      <trkpt lat="45.6598" lon="4.63954">
        <ele>404.4</ele>
      </trkpt>
      <trkpt lat="45.65949" lon="4.63894">
        <ele>397</ele>
        <time>2004-11-27T12:38:16Z</time>
      </trkpt>
      <trkpt lat="45.66044" lon="4.63905">
        <ele>406</ele>
        <time>2004-11-27T12:38:58Z</time>
      </trkpt>
      <trkpt lat="45.6608" lon="4.63878">
        <ele>407.6</ele>
      </trkpt>
      <trkpt lat="45.66131" lon="4.63893">
        <ele>409.7</ele>
      </trkpt>
      <trkpt lat="45.6616" lon="4.63917">
        <ele>411</ele>
        <time>2004-11-27T12:39:33Z</time>
      </trkpt>
      <trkpt lat="45.66228" lon="4.63942">
        <ele>419</ele>
        <time>2004-11-27T12:40:04Z</time>
      </trkpt>
      <trkpt lat="45.66346" lon="4.63992">
        <ele>421</ele>
        <time>2004-11-27T12:40:45Z</time>
      </trkpt>
      <trkpt lat="45.66315" lon="4.63837">
        <ele>444</ele>
        <time>2004-11-27T12:41:53Z</time>
      </trkpt>
      <trkpt lat="45.66288" lon="4.63722">
        <ele>459</ele>
        <time>2004-11-27T12:42:48Z</time>
      </trkpt>
      <trkpt lat="45.66303" lon="4.6367">
        <ele>456</ele>
      </trkpt>
      <trkpt lat="45.66368" lon="4.6361">
        <ele>450</ele>
        <time>2004-11-27T12:45:38Z</time>
      </trkpt>
      <trkpt lat="45.66337" lon="4.634">
        <ele>443</ele>
        <time>2004-11-27T12:45:55Z</time>
      </trkpt>
      <trkpt lat="45.66367" lon="4.63198">
        <ele>436</ele>
        <time>2004-11-27T12:46:13Z</time>
      </trkpt>
      <trkpt lat="45.66398" lon="4.63155">
        <ele>440.6</ele>
      </trkpt>
      <trkpt lat="45.66424" lon="4.63183">
        <ele>444</ele>
        <time>2004-11-27T12:46:42Z</time>
      </trkpt>
      <trkpt lat="45.6645" lon="4.6315">
        <ele>447</ele>
      </trkpt>
      <trkpt lat="45.66533" lon="4.63162">
        <ele>454</ele>
        <time>2004-11-27T12:47:43Z</time>
      </trkpt>
      <trkpt lat="45.66627" lon="4.63127">
        <ele>463</ele>
        <time>2004-11-27T12:48:35Z</time>
      </trkpt>
      <trkpt lat="45.66663" lon="4.6309">
        <ele>467.6</ele>
      </trkpt>
      <trkpt lat="45.66703" lon="4.63104">
        <ele>472</ele>
        <time>2004-11-27T12:49:22Z</time>
      </trkpt>
      <trkpt lat="45.6677" lon="4.63072">
        <ele>478</ele>
        <time>2004-11-27T12:50:04Z</time>
      </trkpt>
      <trkpt lat="45.66886" lon="4.63062">
        <ele>475</ele>
        <time>2004-11-27T12:50:36Z</time>
      </trkpt>
      <trkpt lat="45.66875" lon="4.6298">
        <ele>482</ele>
        <time>2004-11-27T12:51:11Z</time>
      </trkpt>
      <trkpt lat="45.66841" lon="4.62937">
        <ele>494</ele>
        <time>2004-11-27T12:52:17Z</time>
      </trkpt>
      <trkpt lat="45.66775" lon="4.62872">
        <ele>509</ele>
        <time>2004-11-27T12:53:47Z</time>
      </trkpt>
      <trkpt lat="45.66748" lon="4.62824">
        <ele>513.6</ele>
      </trkpt>
      <trkpt lat="45.66759" lon="4.62766">
        <ele>518</ele>
        <time>2004-11-27T12:54:48Z</time>
      </trkpt>
      <trkpt lat="45.66751" lon="4.62693">
        <ele>522.1</ele>
      </trkpt>
      <trkpt lat="45.66773" lon="4.6268">
        <ele>524</ele>
        <time>2004-11-27T12:55:29Z</time>
      </trkpt>
      <trkpt lat="45.66749" lon="4.62625">
        <ele>527.9</ele>
      </trkpt>
      <trkpt lat="45.6676" lon="4.62576">
        <ele>531</ele>
        <time>2004-11-27T12:56:12Z</time>
      </trkpt>
      <trkpt lat="45.66718" lon="4.62419">
        <ele>538</ele>
        <time>2004-11-27T12:56:43Z</time>
      </trkpt>
      <trkpt lat="45.66696" lon="4.62363">
        <ele>538.4</ele>
      </trkpt>
      <trkpt lat="45.66644" lon="4.62332">
        <ele>539</ele>
        <time>2004-11-27T12:57:21Z</time>
      </trkpt>
      <trkpt lat="45.66585" lon="4.62191">
        <ele>544</ele>
        <time>2004-11-27T12:58:07Z</time>
      </trkpt>
      <trkpt lat="45.66525" lon="4.61971">
        <ele>549</ele>
        <time>2004-11-27T12:58:53Z</time>
      </trkpt>
      <trkpt lat="45.66497" lon="4.61832">
        <ele>559</ele>
        <time>2004-11-27T12:59:37Z</time>
      </trkpt>
      <trkpt lat="45.66495" lon="4.61746">
        <ele>562.1</ele>
      </trkpt>
      <trkpt lat="45.66507" lon="4.61727">
        <ele>563</ele>
        <time>2004-11-27T13:00:08Z</time>
      </trkpt>
      <trkpt lat="45.66475" lon="4.61625">
        <ele>575</ele>
        <time>2004-11-27T13:00:57Z</time>
      </trkpt>
      <trkpt lat="45.66442" lon="4.61489">
        <ele>590</ele>
        <time>2004-11-27T13:02:10Z</time>
      </trkpt>
      <trkpt lat="45.6638" lon="4.61355">
        <ele>607</ele>
        <time>2004-11-27T13:03:26Z</time>
      </trkpt>
      <trkpt lat="45.6627" lon="4.61306">
        <ele>619</ele>
        <time>2004-11-27T13:04:33Z</time>
      </trkpt>
      <trkpt lat="45.66145" lon="4.61154">
        <ele>630</ele>
        <time>2004-11-27T13:05:34Z</time>
      </trkpt>
      <trkpt lat="45.66131" lon="4.61063">
        <ele>634.1</ele>
      </trkpt>
      <trkpt lat="45.66094" lon="4.60963">
        <ele>639</ele>
        <time>2004-11-27T13:07:54Z</time>
      </trkpt>
      <trkpt lat="45.65975" lon="4.60755">
        <ele>636</ele>
        <time>2004-11-27T13:08:47Z</time>
      </trkpt>
      <trkpt lat="45.65844" lon="4.60352">
        <ele>634</ele>
        <time>2004-11-27T13:09:24Z</time>
      </trkpt>
      <trkpt lat="45.6582" lon="4.60135">
        <ele>637</ele>
        <time>2004-11-27T13:09:58Z</time>
      </trkpt>
      <trkpt lat="45.65758" lon="4.59953">
        <ele>637</ele>
        <time>2004-11-27T13:10:36Z</time>
      </trkpt>
      <trkpt lat="45.6575" lon="4.59843">
        <ele>643</ele>
        <time>2004-11-27T13:11:19Z</time>
      </trkpt>
      <trkpt lat="45.65703" lon="4.59639">
        <ele>658</ele>
        <time>2004-11-27T13:12:45Z</time>
      </trkpt>
      <trkpt lat="45.65623" lon="4.59647">
        <ele>672</ele>
        <time>2004-11-27T13:13:50Z</time>
      </trkpt>
      <trkpt lat="45.65585" lon="4.59595">
        <ele>680</ele>
        <time>2004-11-27T13:14:44Z</time>
      </trkpt>
      <trkpt lat="45.65525" lon="4.59551">
        <ele>691</ele>
        <time>2004-11-27T13:15:39Z</time>
      </trkpt>
      <trkpt lat="45.65481" lon="4.5951">
        <ele>698</ele>
        <time>2004-11-27T13:16:30Z</time>
      </trkpt>
      <trkpt lat="45.65434" lon="4.59411">
        <ele>698</ele>
        <time>2004-11-27T13:17:11Z</time>
      </trkpt>
      <trkpt lat="45.65399" lon="4.5934">
        <ele>702</ele>
        <time>2004-11-27T13:17:44Z</time>
      </trkpt>
      <trkpt lat="45.65338" lon="4.59295">
        <ele>703</ele>
        <time>2004-11-27T13:18:21Z</time>
      </trkpt>
      <trkpt lat="45.65302" lon="4.59263">
        <ele>711</ele>
        <time>2004-11-27T13:19:13Z</time>
      </trkpt>
      <trkpt lat="45.65209" lon="4.59268">
        <ele>720.3</ele>
      </trkpt>
      <trkpt lat="45.65188" lon="4.59225">
        <ele>724</ele>
        <time>2004-11-27T13:21:04Z</time>
      </trkpt>
      <trkpt lat="45.651" lon="4.59236">
        <ele>726</ele>
        <time>2004-11-27T13:21:30Z</time>
      </trkpt>
      <trkpt lat="45.65068" lon="4.59256">
        <ele>726</ele>
      </trkpt>
      <trkpt lat="45.65025" lon="4.59251">
        <ele>726</ele>
      </trkpt>
      <trkpt lat="45.64937" lon="4.59114">
        <ele>726</ele>
        <time>2004-11-27T13:22:30Z</time>
      </trkpt>
      <trkpt lat="45.64824" lon="4.59158">
        <ele>736</ele>
        <time>2004-11-27T13:23:19Z</time>
      </trkpt>
      <trkpt lat="45.64788" lon="4.59206">
        <ele>742.5</ele>
      </trkpt>
      <trkpt lat="45.64762" lon="4.59265">
        <ele>749</ele>
        <time>2004-11-27T13:24:09Z</time>
      </trkpt>
      <trkpt lat="45.647" lon="4.59217">
        <ele>762</ele>
        <time>2004-11-27T13:25:20Z</time>
      </trkpt>
      <trkpt lat="45.6465" lon="4.59139">
        <ele>770</ele>
        <time>2004-11-27T13:25:58Z</time>
      </trkpt>
      <trkpt lat="45.64629" lon="4.59163">
        <ele>771.9</ele>
      </trkpt>
      <trkpt lat="45.64628" lon="4.59287">
        <ele>778</ele>
        <time>2004-11-27T13:27:11Z</time>
      </trkpt>
      <trkpt lat="45.64565" lon="4.59366">
        <ele>788</ele>
        <time>2004-11-27T13:28:05Z</time>
      </trkpt>
      <trkpt lat="45.64506" lon="4.59374">
        <ele>798</ele>
        <time>2004-11-27T13:31:39Z</time>
      </trkpt>
      <trkpt lat="45.64423" lon="4.59452">
        <ele>810</ele>
        <time>2004-11-27T13:32:41Z</time>
      </trkpt>
      <trkpt lat="45.64385" lon="4.59534">
        <ele>823</ele>
        <time>2004-11-27T13:33:38Z</time>
      </trkpt>
      <trkpt lat="45.6435" lon="4.59673">
        <ele>835</ele>
        <time>2004-11-27T13:34:44Z</time>
      </trkpt>
      <trkpt lat="45.64278" lon="4.59725">
        <ele>839</ele>
        <time>2004-11-27T13:35:22Z</time>
      </trkpt>
      <trkpt lat="45.64214" lon="4.59719">
        <ele>831</ele>
        <time>2004-11-27T13:35:44Z</time>
      </trkpt>
      <trkpt lat="45.64146" lon="4.59732">
        <ele>828</ele>
        <time>2004-11-27T13:36:18Z</time>
      </trkpt>
      <trkpt lat="45.63984" lon="4.59735">
        <ele>831</ele>
        <time>2004-11-27T13:37:17Z</time>
      </trkpt>
      <trkpt lat="45.6374" lon="4.59674">
        <ele>850</ele>
        <time>2004-11-27T13:38:45Z</time>
      </trkpt>
      <trkpt lat="45.6361" lon="4.59702">
        <ele>859</ele>
        <time>2004-11-27T13:39:47Z</time>
      </trkpt>
      <trkpt lat="45.63642" lon="4.59897">
        <ele>850</ele>
        <time>2004-11-27T13:41:33Z</time>
      </trkpt>
      <trkpt lat="45.63721" lon="4.60021">
        <ele>837</ele>
        <time>2004-11-27T13:41:55Z</time>
      </trkpt>
      <trkpt lat="45.63795" lon="4.60136">
        <ele>828</ele>
        <time>2004-11-27T13:42:25Z</time>
      </trkpt>
      <trkpt lat="45.63781" lon="4.60187">
        <ele>828.4</ele>
      </trkpt>
      <trkpt lat="45.63721" lon="4.60221">
        <ele>829</ele>
        <time>2004-11-27T13:43:00Z</time>
      </trkpt>
      <trkpt lat="45.636" lon="4.60323">
        <ele>827</ele>
        <time>2004-11-27T13:43:32Z</time>
      </trkpt>
      <trkpt lat="45.6352" lon="4.60405">
        <ele>823</ele>
        <time>2004-11-27T13:43:52Z</time>
      </trkpt>
      <trkpt lat="45.63472" lon="4.60408">
        <ele>833</ele>
        <time>2004-11-27T13:44:23Z</time>
      </trkpt>
      <trkpt lat="45.63435" lon="4.60416">
        <ele>838.7</ele>
      </trkpt>
      <trkpt lat="45.63386" lon="4.60494">
        <ele>850</ele>
        <time>2004-11-27T13:45:16Z</time>
      </trkpt>
      <trkpt lat="45.63335" lon="4.60482">
        <ele>849.3</ele>
      </trkpt>
      <trkpt lat="45.63253" lon="4.60424">
        <ele>848</ele>
        <time>2004-11-27T13:46:11Z</time>
      </trkpt>
      <trkpt lat="45.63217" lon="4.60401">
        <ele>848.3</ele>
      </trkpt>
      <trkpt lat="45.63137" lon="4.60288">
        <ele>849</ele>
        <time>2004-11-27T13:46:49Z</time>
      </trkpt>
      <trkpt lat="45.63058" lon="4.60147">
        <ele>843</ele>
        <time>2004-11-27T13:47:13Z</time>
      </trkpt>
      <trkpt lat="45.63003" lon="4.60123">
        <ele>844.6</ele>
      </trkpt>
      <trkpt lat="45.62994" lon="4.60052">
        <ele>846</ele>
        <time>2004-11-27T13:47:43Z</time>
      </trkpt>
      <trkpt lat="45.62967" lon="4.60037">
        <ele>844.6</ele>
      </trkpt>
      <trkpt lat="45.62915" lon="4.59993">
        <ele>841.6</ele>
      </trkpt>
      <trkpt lat="45.62862" lon="4.59986">
        <ele>834</ele>
      </trkpt>
      <trkpt lat="45.6285" lon="4.5994">
        <ele>825</ele>
      </trkpt>
      <trkpt lat="45.62844" lon="4.59894">
        <ele>825</ele>
      </trkpt>
      <trkpt lat="45.62844" lon="4.59894">
        <ele>825</ele>
      </trkpt>
      <trkpt lat="45.62839" lon="4.59874">
        <ele>821</ele>
      </trkpt>
      <trkpt lat="45.62803" lon="4.59807">
        <ele>821</ele>
      </trkpt>
      <trkpt lat="45.62803" lon="4.59807">
        <ele>821</ele>
      </trkpt>
      <trkpt lat="45.62777" lon="4.59736">
        <ele>806</ele>
      </trkpt>
      <trkpt lat="45.62777" lon="4.59736">
        <ele>806</ele>
      </trkpt>
      <trkpt lat="45.62772" lon="4.59711">
        <ele>806</ele>
      </trkpt>
      <trkpt lat="45.62769" lon="4.59598">
        <ele>805</ele>
      </trkpt>
      <trkpt lat="45.62769" lon="4.59598">
        <ele>805</ele>
      </trkpt>
      <trkpt lat="45.62778" lon="4.59495">
        <ele>801</ele>
      </trkpt>
      <trkpt lat="45.62778" lon="4.59495">
        <ele>801</ele>
      </trkpt>
      <trkpt lat="45.62793" lon="4.59423">
        <ele>818</ele>
      </trkpt>
      <trkpt lat="45.62791" lon="4.59374">
        <ele>796</ele>
      </trkpt>
      <trkpt lat="45.62791" lon="4.59374">
        <ele>796</ele>
      </trkpt>
      <trkpt lat="45.62788" lon="4.59343">
        <ele>796</ele>
      </trkpt>
      <trkpt lat="45.62788" lon="4.59343">
        <ele>796</ele>
      </trkpt>
      <trkpt lat="45.62789" lon="4.5927">
        <ele>795</ele>
      </trkpt>
      <trkpt lat="45.62789" lon="4.5927">
        <ele>795</ele>
      </trkpt>
      <trkpt lat="45.62783" lon="4.59172">
        <ele>790</ele>
      </trkpt>
      <trkpt lat="45.62783" lon="4.59172">
        <ele>790</ele>
      </trkpt>
      <trkpt lat="45.62785" lon="4.59115">
        <ele>786</ele>
      </trkpt>
      <trkpt lat="45.62792" lon="4.59079">
        <ele>803</ele>
      </trkpt>
      <trkpt lat="45.62792" lon="4.59079">
        <ele>803</ele>
      </trkpt>
      <trkpt lat="45.62797" lon="4.59051">
        <ele>803</ele>
      </trkpt>
      <trkpt lat="45.62797" lon="4.59051">
        <ele>803</ele>
      </trkpt>
      <trkpt lat="45.62795" lon="4.59005">
        <ele>801</ele>
      </trkpt>
      <trkpt lat="45.62795" lon="4.59005">
        <ele>801</ele>
      </trkpt>
      <trkpt lat="45.62802" lon="4.58963">
        <ele>801</ele>
      </trkpt>
      <trkpt lat="45.62802" lon="4.58963">
        <ele>801</ele>
      </trkpt>
      <trkpt lat="45.62808" lon="4.589">
        <ele>797</ele>
      </trkpt>
      <trkpt lat="45.62808" lon="4.589">
        <ele>797</ele>
      </trkpt>
      <trkpt lat="45.62814" lon="4.58811">
        <ele>791</ele>
      </trkpt>
      <trkpt lat="45.62814" lon="4.58811">
        <ele>791</ele>
      </trkpt>
      <trkpt lat="45.62814" lon="4.58806">
        <ele>791</ele>
      </trkpt>
      <trkpt lat="45.62814" lon="4.58806">
        <ele>791</ele>
      </trkpt>
      <trkpt lat="45.62814" lon="4.58715">
        <ele>783</ele>
      </trkpt>
      <trkpt lat="45.62814" lon="4.58715">
        <ele>783</ele>
      </trkpt>
      <trkpt lat="45.62826" lon="4.58606">
        <ele>763</ele>
      </trkpt>
      <trkpt lat="45.62826" lon="4.58606">
        <ele>763</ele>
      </trkpt>
      <trkpt lat="45.62833" lon="4.58539">
        <ele>758</ele>
      </trkpt>
      <trkpt lat="45.62833" lon="4.58539">
        <ele>758</ele>
      </trkpt>
      <trkpt lat="45.62864" lon="4.58481">
        <ele>758</ele>
      </trkpt>
      <trkpt lat="45.62864" lon="4.58481">
        <ele>758</ele>
      </trkpt>
      <trkpt lat="45.62884" lon="4.58441">
        <ele>755</ele>
      </trkpt>
      <trkpt lat="45.62884" lon="4.58441">
        <ele>755</ele>
      </trkpt>
      <trkpt lat="45.62896" lon="4.58404">
        <ele>755</ele>
      </trkpt>
      <trkpt lat="45.62896" lon="4.58404">
        <ele>755</ele>
      </trkpt>
      <trkpt lat="45.62901" lon="4.58369">
        <ele>751</ele>
      </trkpt>
      <trkpt lat="45.62901" lon="4.58369">
        <ele>751</ele>
      </trkpt>
      <trkpt lat="45.62896" lon="4.58336">
        <ele>751</ele>
      </trkpt>
      <trkpt lat="45.62896" lon="4.58336">
        <ele>751</ele>
      </trkpt>
      <trkpt lat="45.62894" lon="4.58286">
        <ele>750</ele>
      </trkpt>
      <trkpt lat="45.62897" lon="4.5827">
        <ele>750</ele>
      </trkpt>
      <trkpt lat="45.62897" lon="4.5827">
        <ele>750</ele>
      </trkpt>
      <trkpt lat="45.62898" lon="4.58267">
        <ele>750</ele>
      </trkpt>
      <trkpt lat="45.62898" lon="4.58267">
        <ele>750</ele>
      </trkpt>
      <trkpt lat="45.62876" lon="4.58286">
        <ele>750</ele>
      </trkpt>
      <trkpt lat="45.62876" lon="4.58286">
        <ele>750</ele>
      </trkpt>
      <trkpt lat="45.62859" lon="4.58284">
        <ele>747</ele>
      </trkpt>
      <trkpt lat="45.62859" lon="4.58284">
        <ele>747</ele>
      </trkpt>
      <trkpt lat="45.62842" lon="4.58273">
        <ele>747</ele>
      </trkpt>
      <trkpt lat="45.62842" lon="4.58273">
        <ele>747</ele>
      </trkpt>
      <trkpt lat="45.62819" lon="4.58262">
        <ele>747</ele>
      </trkpt>
      <trkpt lat="45.62819" lon="4.58262">
        <ele>747</ele>
      </trkpt>
      <trkpt lat="45.628" lon="4.58262">
        <ele>747</ele>
      </trkpt>
      <trkpt lat="45.628" lon="4.58262">
        <ele>747</ele>
      </trkpt>
      <trkpt lat="45.62774" lon="4.58258">
        <ele>757</ele>
      </trkpt>
      <trkpt lat="45.62774" lon="4.58258">
        <ele>757</ele>
      </trkpt>
      <trkpt lat="45.62755" lon="4.58255">
        <ele>757</ele>
      </trkpt>
      <trkpt lat="45.62755" lon="4.58255">
        <ele>757</ele>
      </trkpt>
      <trkpt lat="45.62752" lon="4.58266">
        <ele>757</ele>
      </trkpt>
      <trkpt lat="45.62752" lon="4.58266">
        <ele>757</ele>
      </trkpt>
      <trkpt lat="45.62736" lon="4.58285">
        <ele>757</ele>
      </trkpt>
      <trkpt lat="45.62736" lon="4.58285">
        <ele>757</ele>
      </trkpt>
      <trkpt lat="45.62669" lon="4.58342">
        <ele>780</ele>
      </trkpt>
      <trkpt lat="45.62669" lon="4.58342">
        <ele>780</ele>
      </trkpt>
      <trkpt lat="45.6264" lon="4.58387">
        <ele>780</ele>
      </trkpt>
      <trkpt lat="45.6264" lon="4.58387">
        <ele>780</ele>
      </trkpt>
      <trkpt lat="45.62622" lon="4.58425">
        <ele>795</ele>
      </trkpt>
      <trkpt lat="45.62622" lon="4.58425">
        <ele>795</ele>
      </trkpt>
      <trkpt lat="45.62566" lon="4.58488">
        <ele>792</ele>
      </trkpt>
      <trkpt lat="45.62566" lon="4.58488">
        <ele>792</ele>
      </trkpt>
      <trkpt lat="45.62545" lon="4.5853">
        <ele>792</ele>
      </trkpt>
      <trkpt lat="45.62545" lon="4.5853">
        <ele>792</ele>
      </trkpt>
      <trkpt lat="45.62531" lon="4.58573">
        <ele>813</ele>
      </trkpt>
      <trkpt lat="45.62531" lon="4.58573">
        <ele>813</ele>
      </trkpt>
      <trkpt lat="45.62516" lon="4.58625">
        <ele>807</ele>
      </trkpt>
      <trkpt lat="45.62516" lon="4.58625">
        <ele>807</ele>
      </trkpt>
      <trkpt lat="45.62511" lon="4.58638">
        <ele>807</ele>
      </trkpt>
      <trkpt lat="45.62511" lon="4.58638">
        <ele>807</ele>
      </trkpt>
      <trkpt lat="45.62504" lon="4.58648">
        <ele>807</ele>
      </trkpt>
      <trkpt lat="45.62504" lon="4.58648">
        <ele>807</ele>
      </trkpt>
      <trkpt lat="45.62482" lon="4.58672">
        <ele>807</ele>
      </trkpt>
      <trkpt lat="45.62482" lon="4.58672">
        <ele>807</ele>
      </trkpt>
      <trkpt lat="45.62449" lon="4.58712">
        <ele>819</ele>
      </trkpt>
      <trkpt lat="45.62449" lon="4.58712">
        <ele>819</ele>
      </trkpt>
      <trkpt lat="45.62418" lon="4.58751">
        <ele>819</ele>
      </trkpt>
      <trkpt lat="45.62418" lon="4.58751">
        <ele>819</ele>
      </trkpt>
      <trkpt lat="45.62392" lon="4.5878">
        <ele>819</ele>
      </trkpt>
      <trkpt lat="45.62392" lon="4.5878">
        <ele>819</ele>
      </trkpt>
      <trkpt lat="45.62366" lon="4.58798">
        <ele>828</ele>
      </trkpt>
      <trkpt lat="45.62366" lon="4.58798">
        <ele>828</ele>
      </trkpt>
      <trkpt lat="45.62339" lon="4.58814">
        <ele>828</ele>
      </trkpt>
      <trkpt lat="45.6232" lon="4.58819">
        <ele>828</ele>
      </trkpt>
      <trkpt lat="45.6232" lon="4.58819">
        <ele>828</ele>
      </trkpt>
      <trkpt lat="45.62304" lon="4.58819">
        <ele>828</ele>
      </trkpt>
      <trkpt lat="45.62284" lon="4.58808">
        <ele>838</ele>
      </trkpt>
      <trkpt lat="45.62275" lon="4.58805">
        <ele>826.8710938</ele>
      </trkpt>
      <trkpt lat="45.62269" lon="4.58803">
        <ele>828.7939453</ele>
      </trkpt>
      <trkpt lat="45.62259" lon="4.58798">
        <ele>829.755127</ele>
      </trkpt>
      <trkpt lat="45.62255" lon="4.58797">
        <ele>830.2358398</ele>
      </trkpt>
      <trkpt lat="45.62247" lon="4.58791">
        <ele>831.1972656</ele>
      </trkpt>
      <trkpt lat="45.62208" lon="4.58789">
        <ele>832.1584473</ele>
      </trkpt>
      <trkpt lat="45.62193" lon="4.58826">
        <ele>832.6391602</ele>
      </trkpt>
      <trkpt lat="45.6216" lon="4.58876">
        <ele>834.0810547</ele>
      </trkpt>
      <trkpt lat="45.6214" lon="4.58904">
        <ele>836.9648438</ele>
      </trkpt>
      <trkpt lat="45.62124" lon="4.58926">
        <ele>840.8100586</ele>
      </trkpt>
      <trkpt lat="45.62111" lon="4.58942">
        <ele>842.7329102</ele>
      </trkpt>
      <trkpt lat="45.62096" lon="4.58976">
        <ele>844.6555176</ele>
      </trkpt>
      <trkpt lat="45.62075" lon="4.59018">
        <ele>846.5783691</ele>
      </trkpt>
      <trkpt lat="45.62062" lon="4.59044">
        <ele>848.5007324</ele>
      </trkpt>
      <trkpt lat="45.62055" lon="4.59065">
        <ele>849.4621582</ele>
      </trkpt>
      <trkpt lat="45.62046" lon="4.59102">
        <ele>850.9040527</ele>
      </trkpt>
      <trkpt lat="45.62043" lon="4.59108">
        <ele>850.9040527</ele>
      </trkpt>
      <trkpt lat="45.62041" lon="4.59123">
        <ele>851.8654785</ele>
      </trkpt>
      <trkpt lat="45.6202" lon="4.59179">
        <ele>851.8654785</ele>
      </trkpt>
      <trkpt lat="45.61991" lon="4.59229">
        <ele>853.7880859</ele>
      </trkpt>
      <trkpt lat="45.6195" lon="4.59271">
        <ele>854.2687988</ele>
      </trkpt>
      <trkpt lat="45.6191" lon="4.5933">
        <ele>851.8654785</ele>
      </trkpt>
      <trkpt lat="45.619" lon="4.59345">
        <ele>850.9040527</ele>
      </trkpt>
      <trkpt lat="45.61842" lon="4.59358">
        <ele>848.9814453</ele>
      </trkpt>
      <trkpt lat="45.61757" lon="4.59353">
        <ele>846.5783691</ele>
      </trkpt>
      <trkpt lat="45.6166" lon="4.59335">
        <ele>847.5395508</ele>
      </trkpt>
      <trkpt lat="45.61635" lon="4.59334">
        <ele>846.0976563</ele>
      </trkpt>
      <trkpt lat="45.61567" lon="4.59325">
        <ele>846.0976563</ele>
      </trkpt>
      <trkpt lat="45.61533" lon="4.59316">
        <ele>843.6940918</ele>
      </trkpt>
      <trkpt lat="45.61508" lon="4.59313">
        <ele>841.7714844</ele>
      </trkpt>
      <trkpt lat="45.61489" lon="4.59313">
        <ele>840.3295898</ele>
      </trkpt>
      <trkpt lat="45.61475" lon="4.59312">
        <ele>838.8876953</ele>
      </trkpt>
      <trkpt lat="45.61447" lon="4.5931">
        <ele>837.4455566</ele>
      </trkpt>
      <trkpt lat="45.61426" lon="4.59305">
        <ele>835.5229492</ele>
      </trkpt>
      <trkpt lat="45.61386" lon="4.59292">
        <ele>832.6391602</ele>
      </trkpt>
      <trkpt lat="45.61352" lon="4.59277">
        <ele>830.2358398</ele>
      </trkpt>
      <trkpt lat="45.61332" lon="4.5927">
        <ele>828.7939453</ele>
      </trkpt>
      <trkpt lat="45.6132" lon="4.59267">
        <ele>826.8710938</ele>
      </trkpt>
      <trkpt lat="45.61309" lon="4.59262">
        <ele>825.4289551</ele>
      </trkpt>
      <trkpt lat="45.61291" lon="4.59255">
        <ele>823.9870605</ele>
      </trkpt>
      <trkpt lat="45.61278" lon="4.59249">
        <ele>822.0644531</ele>
      </trkpt>
      <trkpt lat="45.61255" lon="4.59245">
        <ele>817.7385254</ele>
      </trkpt>
      <trkpt lat="45.61251" lon="4.59246">
        <ele>817.7385254</ele>
      </trkpt>
      <trkpt lat="45.61241" lon="4.59248">
        <ele>815.8161621</ele>
      </trkpt>
      <trkpt lat="45.61233" lon="4.59245">
        <ele>814.3740234</ele>
      </trkpt>
      <trkpt lat="45.61222" lon="4.59235">
        <ele>811.4899902</ele>
      </trkpt>
      <trkpt lat="45.61218" lon="4.5923">
        <ele>809.5673828</ele>
      </trkpt>
      <trkpt lat="45.61204" lon="4.59212">
        <ele>808.1254883</ele>
      </trkpt>
      <trkpt lat="45.61192" lon="4.59201">
        <ele>807.1640625</ele>
      </trkpt>
      <trkpt lat="45.6118" lon="4.59185">
        <ele>803.3188477</ele>
      </trkpt>
      <trkpt lat="45.61168" lon="4.59173">
        <ele>801.8769531</ele>
      </trkpt>
      <trkpt lat="45.61158" lon="4.59164">
        <ele>799.9543457</ele>
      </trkpt>
      <trkpt lat="45.61148" lon="4.59152">
        <ele>796.5898438</ele>
      </trkpt>
      <trkpt lat="45.61144" lon="4.59145">
        <ele>796.5898438</ele>
      </trkpt>
      <trkpt lat="45.61133" lon="4.59134">
        <ele>795.1474609</ele>
      </trkpt>
      <trkpt lat="45.61123" lon="4.59124">
        <ele>794.1862793</ele>
      </trkpt>
      <trkpt lat="45.61107" lon="4.59112">
        <ele>791.782959</ele>
      </trkpt>
      <trkpt lat="45.61096" lon="4.59108">
        <ele>790.3410645</ele>
      </trkpt>
      <trkpt lat="45.61091" lon="4.59104">
        <ele>789.3796387</ele>
      </trkpt>
      <trkpt lat="45.61071" lon="4.59087">
        <ele>786.4958496</ele>
      </trkpt>
      <trkpt lat="45.61063" lon="4.59078">
        <ele>785.0539551</ele>
      </trkpt>
      <trkpt lat="45.61054" lon="4.59067">
        <ele>783.1311035</ele>
      </trkpt>
      <trkpt lat="45.61037" lon="4.59055">
        <ele>780.2473145</ele>
      </trkpt>
      <trkpt lat="45.61025" lon="4.5905">
        <ele>779.7663574</ele>
      </trkpt>
      <trkpt lat="45.61013" lon="4.59047">
        <ele>777.84375</ele>
      </trkpt>
      <trkpt lat="45.6098" lon="4.59041">
        <ele>774.9599609</ele>
      </trkpt>
      <trkpt lat="45.60952" lon="4.59035">
        <ele>773.0373535</ele>
      </trkpt>
      <trkpt lat="45.60923" lon="4.59029">
        <ele>769.6728516</ele>
      </trkpt>
      <trkpt lat="45.60916" lon="4.59028">
        <ele>769.6728516</ele>
      </trkpt>
      <trkpt lat="45.60904" lon="4.59025">
        <ele>768.2307129</ele>
      </trkpt>
      <trkpt lat="45.60893" lon="4.59023">
        <ele>764.385498</ele>
      </trkpt>
      <trkpt lat="45.60888" lon="4.59022">
        <ele>764.385498</ele>
      </trkpt>
      <trkpt lat="45.60874" lon="4.59023">
        <ele>761.9821777</ele>
      </trkpt>
      <trkpt lat="45.60871" lon="4.59025">
        <ele>761.020752</ele>
      </trkpt>
      <trkpt lat="45.60867" lon="4.59028">
        <ele>760.0593262</ele>
      </trkpt>
      <trkpt lat="45.60868" lon="4.59049">
        <ele>759.5788574</ele>
      </trkpt>
      <trkpt lat="45.60895" lon="4.59146">
        <ele>762.4626465</ele>
      </trkpt>
      <trkpt lat="45.60899" lon="4.59218">
        <ele>761.9821777</ele>
      </trkpt>
      <trkpt lat="45.6089" lon="4.59299">
        <ele>760.0593262</ele>
      </trkpt>
      <trkpt lat="45.60886" lon="4.59357">
        <ele>759.0981445</ele>
      </trkpt>
      <trkpt lat="45.60872" lon="4.59468">
        <ele>759.5788574</ele>
      </trkpt>
      <trkpt lat="45.60877" lon="4.59528">
        <ele>759.0981445</ele>
      </trkpt>
      <trkpt lat="45.60879" lon="4.59542">
        <ele>759.0981445</ele>
      </trkpt>
      <trkpt lat="45.60901" lon="4.59598">
        <ele>758.6174316</ele>
      </trkpt>
      <trkpt lat="45.60921" lon="4.59616">
        <ele>758.6174316</ele>
      </trkpt>
      <trkpt lat="45.60931" lon="4.59627">
        <ele>758.6174316</ele>
      </trkpt>
      <trkpt lat="45.60939" lon="4.59652">
        <ele>757.65625</ele>
      </trkpt>
      <trkpt lat="45.60952" lon="4.59682">
        <ele>757.1755371</ele>
      </trkpt>
      <trkpt lat="45.6096" lon="4.59695">
        <ele>755.7336426</ele>
      </trkpt>
      <trkpt lat="45.60964" lon="4.59701">
        <ele>755.2529297</ele>
      </trkpt>
      <trkpt lat="45.60983" lon="4.5974">
        <ele>753.8110352</ele>
      </trkpt>
      <trkpt lat="45.60993" lon="4.59752">
        <ele>752.3688965</ele>
      </trkpt>
      <trkpt lat="45.61005" lon="4.59757">
        <ele>750.927002</ele>
      </trkpt>
      <trkpt lat="45.61026" lon="4.59761">
        <ele>747.5622559</ele>
      </trkpt>
      <trkpt lat="45.61031" lon="4.59807">
        <ele>745.6396484</ele>
      </trkpt>
      <trkpt lat="45.61024" lon="4.59849">
        <ele>745.1589355</ele>
      </trkpt>
      <trkpt lat="45.61019" lon="4.59909">
        <ele>746.1203613</ele>
      </trkpt>
      <trkpt lat="45.61032" lon="4.59944">
        <ele>748.5236816</ele>
      </trkpt>
      <trkpt lat="45.61052" lon="4.59976">
        <ele>751.4077148</ele>
      </trkpt>
      <trkpt lat="45.61076" lon="4.60003">
        <ele>749.9658203</ele>
      </trkpt>
      <trkpt lat="45.61091" lon="4.60013">
        <ele>749.4851074</ele>
      </trkpt>
      <trkpt lat="45.6113" lon="4.60036">
        <ele>747.5622559</ele>
      </trkpt>
      <trkpt lat="45.61146" lon="4.60037">
        <ele>746.6010742</ele>
      </trkpt>
      <trkpt lat="45.61167" lon="4.60042">
        <ele>744.1977539</ele>
      </trkpt>
      <trkpt lat="45.61178" lon="4.60101">
        <ele>741.7944336</ele>
      </trkpt>
      <trkpt lat="45.61187" lon="4.60129">
        <ele>741.3137207</ele>
      </trkpt>
      <trkpt lat="45.6119" lon="4.60163">
        <ele>738.4299316</ele>
      </trkpt>
      <trkpt lat="45.6119" lon="4.60175">
        <ele>736.987793</ele>
      </trkpt>
      <trkpt lat="45.61194" lon="4.60207">
        <ele>735.5458984</ele>
      </trkpt>
      <trkpt lat="45.612" lon="4.60235">
        <ele>733.623291</ele>
      </trkpt>
      <trkpt lat="45.61205" lon="4.60258">
        <ele>730.7392578</ele>
      </trkpt>
      <trkpt lat="45.61217" lon="4.60291">
        <ele>730.7392578</ele>
      </trkpt>
      <trkpt lat="45.61247" lon="4.60333">
        <ele>729.777832</ele>
      </trkpt>
      <trkpt lat="45.6127" lon="4.60364">
        <ele>729.777832</ele>
      </trkpt>
      <trkpt lat="45.61289" lon="4.60409">
        <ele>731.7004395</ele>
      </trkpt>
      <trkpt lat="45.61304" lon="4.60467">
        <ele>732.1813965</ele>
      </trkpt>
      <trkpt lat="45.61304" lon="4.60469">
        <ele>733.1425781</ele>
      </trkpt>
      <trkpt lat="45.61297" lon="4.605">
        <ele>734.5847168</ele>
      </trkpt>
      <trkpt lat="45.61315" lon="4.6052">
        <ele>736.0266113</ele>
      </trkpt>
      <trkpt lat="45.61341" lon="4.60545">
        <ele>733.623291</ele>
      </trkpt>
      <trkpt lat="45.6136" lon="4.60552">
        <ele>734.1040039</ele>
      </trkpt>
      <trkpt lat="45.61364" lon="4.60558">
        <ele>734.1040039</ele>
      </trkpt>
      <trkpt lat="45.614" lon="4.6057">
        <ele>736.987793</ele>
      </trkpt>
      <trkpt lat="45.61419" lon="4.60573">
        <ele>736.0266113</ele>
      </trkpt>
      <trkpt lat="45.61447" lon="4.60571">
        <ele>735.5458984</ele>
      </trkpt>
      <trkpt lat="45.61458" lon="4.60568">
        <ele>734.1040039</ele>
      </trkpt>
      <trkpt lat="45.61483" lon="4.60582">
        <ele>736.0266113</ele>
      </trkpt>
      <trkpt lat="45.61518" lon="4.60612">
        <ele>734.1040039</ele>
      </trkpt>
      <trkpt lat="45.61539" lon="4.60648">
        <ele>731.7004395</ele>
      </trkpt>
      <trkpt lat="45.61547" lon="4.60677">
        <ele>730.2585449</ele>
      </trkpt>
      <trkpt lat="45.61574" lon="4.60719">
        <ele>728.8166504</ele>
      </trkpt>
      <trkpt lat="45.61586" lon="4.60736">
        <ele>727.3747559</ele>
      </trkpt>
      <trkpt lat="45.61622" lon="4.60746">
        <ele>728.8166504</ele>
      </trkpt>
      <trkpt lat="45.61625" lon="4.60748">
        <ele>729.777832</ele>
      </trkpt>
      <trkpt lat="45.61631" lon="4.6075">
        <ele>730.7392578</ele>
      </trkpt>
      <trkpt lat="45.6165" lon="4.60743">
        <ele>732.6621094</ele>
      </trkpt>
      <trkpt lat="45.61675" lon="4.60742">
        <ele>736.0266113</ele>
      </trkpt>
      <trkpt lat="45.61714" lon="4.6075">
        <ele>737.9492188</ele>
      </trkpt>
      <trkpt lat="45.61722" lon="4.60753">
        <ele>738.4299316</ele>
      </trkpt>
      <trkpt lat="45.6173" lon="4.60762">
        <ele>738.9106445</ele>
      </trkpt>
      <trkpt lat="45.61735" lon="4.60779">
        <ele>734.5847168</ele>
      </trkpt>
      <trkpt lat="45.61744" lon="4.60785">
        <ele>734.5847168</ele>
      </trkpt>
      <trkpt lat="45.61761" lon="4.60801">
        <ele>732.6621094</ele>
      </trkpt>
      <trkpt lat="45.61774" lon="4.60818">
        <ele>729.2971191</ele>
      </trkpt>
      <trkpt lat="45.61785" lon="4.60826">
        <ele>726.4133301</ele>
      </trkpt>
      <trkpt lat="45.61787" lon="4.6083">
        <ele>723.0488281</ele>
      </trkpt>
      <trkpt lat="45.61809" lon="4.60832">
        <ele>720.6455078</ele>
      </trkpt>
      <trkpt lat="45.61837" lon="4.60849">
        <ele>717.7614746</ele>
      </trkpt>
      <trkpt lat="45.61859" lon="4.60856">
        <ele>714.8774414</ele>
      </trkpt>
      <trkpt lat="45.61861" lon="4.60857">
        <ele>713.4355469</ele>
      </trkpt>
      <trkpt lat="45.61864" lon="4.60858">
        <ele>712.954834</ele>
      </trkpt>
      <trkpt lat="45.6187" lon="4.6086">
        <ele>711.5129395</ele>
      </trkpt>
      <trkpt lat="45.61881" lon="4.60862">
        <ele>709.1096191</ele>
      </trkpt>
      <trkpt lat="45.61893" lon="4.6086">
        <ele>705.2644043</ele>
      </trkpt>
      <trkpt lat="45.61903" lon="4.60868">
        <ele>702.861084</ele>
      </trkpt>
      <trkpt lat="45.61906" lon="4.6087">
        <ele>701.8999023</ele>
      </trkpt>
      <trkpt lat="45.6191" lon="4.60871">
        <ele>699.9770508</ele>
      </trkpt>
      <trkpt lat="45.61926" lon="4.60869">
        <ele>696.1318359</ele>
      </trkpt>
      <trkpt lat="45.61934" lon="4.60876">
        <ele>694.6896973</ele>
      </trkpt>
      <trkpt lat="45.61943" lon="4.60879">
        <ele>693.7285156</ele>
      </trkpt>
      <trkpt lat="45.61952" lon="4.60883">
        <ele>691.8059082</ele>
      </trkpt>
      <trkpt lat="45.61976" lon="4.60884">
        <ele>688.4414063</ele>
      </trkpt>
      <trkpt lat="45.61976" lon="4.60889">
        <ele>687.4799805</ele>
      </trkpt>
      <trkpt lat="45.61967" lon="4.60902">
        <ele>685.557373</ele>
      </trkpt>
      <trkpt lat="45.61943" lon="4.60911">
        <ele>682.192627</ele>
      </trkpt>
      <trkpt lat="45.6194" lon="4.60911">
        <ele>682.192627</ele>
      </trkpt>
      <trkpt lat="45.61919" lon="4.60925">
        <ele>677.8666992</ele>
      </trkpt>
      <trkpt lat="45.61915" lon="4.60928">
        <ele>677.8666992</ele>
      </trkpt>
      <trkpt lat="45.61895" lon="4.60946">
        <ele>674.5021973</ele>
      </trkpt>
      <trkpt lat="45.6189" lon="4.60949">
        <ele>674.5021973</ele>
      </trkpt>
      <trkpt lat="45.61859" lon="4.60956">
        <ele>675.4633789</ele>
      </trkpt>
      <trkpt lat="45.61819" lon="4.60962">
        <ele>676.9055176</ele>
      </trkpt>
      <trkpt lat="45.61778" lon="4.60967">
        <ele>675.9440918</ele>
      </trkpt>
      <trkpt lat="45.61739" lon="4.60979">
        <ele>672.5795898</ele>
      </trkpt>
      <trkpt lat="45.61713" lon="4.60999">
        <ele>669.2150879</ele>
      </trkpt>
      <trkpt lat="45.61708" lon="4.61004">
        <ele>669.2150879</ele>
      </trkpt>
      <trkpt lat="45.61696" lon="4.61015">
        <ele>667.7727051</ele>
      </trkpt>
      <trkpt lat="45.61676" lon="4.61041">
        <ele>664.888916</ele>
      </trkpt>
      <trkpt lat="45.61665" lon="4.61064">
        <ele>662.9663086</ele>
      </trkpt>
      <trkpt lat="45.61658" lon="4.61087">
        <ele>660.0822754</ele>
      </trkpt>
      <trkpt lat="45.61634" lon="4.61159">
        <ele>658.1599121</ele>
      </trkpt>
      <trkpt lat="45.61614" lon="4.61219">
        <ele>654.795166</ele>
      </trkpt>
      <trkpt lat="45.61603" lon="4.61275">
        <ele>653.3532715</ele>
      </trkpt>
      <trkpt lat="45.61593" lon="4.61309">
        <ele>649.5078125</ele>
      </trkpt>
      <trkpt lat="45.61585" lon="4.61322">
        <ele>648.065918</ele>
      </trkpt>
      <trkpt lat="45.61576" lon="4.6133">
        <ele>647.5852051</ele>
      </trkpt>
      <trkpt lat="45.61549" lon="4.61359">
        <ele>645.6625977</ele>
      </trkpt>
      <trkpt lat="45.61523" lon="4.61384">
        <ele>644.2207031</ele>
      </trkpt>
      <trkpt lat="45.6151" lon="4.61408">
        <ele>641.3366699</ele>
      </trkpt>
      <trkpt lat="45.6148" lon="4.61447">
        <ele>638.9335938</ele>
      </trkpt>
      <trkpt lat="45.61469" lon="4.61457">
        <ele>637.4914551</ele>
      </trkpt>
      <trkpt lat="45.61455" lon="4.61468">
        <ele>635.0881348</ele>
      </trkpt>
      <trkpt lat="45.61431" lon="4.61451">
        <ele>631.2429199</ele>
      </trkpt>
      <trkpt lat="45.61428" lon="4.61447">
        <ele>631.2429199</ele>
      </trkpt>
      <trkpt lat="45.61423" lon="4.61438">
        <ele>629.8007813</ele>
      </trkpt>
      <trkpt lat="45.61407" lon="4.61419">
        <ele>625.9555664</ele>
      </trkpt>
      <trkpt lat="45.61402" lon="4.61414">
        <ele>625.9555664</ele>
      </trkpt>
      <trkpt lat="45.61395" lon="4.61407">
        <ele>624.5136719</ele>
      </trkpt>
      <trkpt lat="45.61387" lon="4.614">
        <ele>622.5910645</ele>
      </trkpt>
      <trkpt lat="45.61374" lon="4.61384">
        <ele>618.7456055</ele>
      </trkpt>
      <trkpt lat="45.61371" lon="4.61379">
        <ele>618.7456055</ele>
      </trkpt>
      <trkpt lat="45.61367" lon="4.61375">
        <ele>617.3037109</ele>
      </trkpt>
      <trkpt lat="45.61359" lon="4.61362">
        <ele>615.3811035</ele>
      </trkpt>
      <trkpt lat="45.61353" lon="4.61354">
        <ele>613.9389648</ele>
      </trkpt>
      <trkpt lat="45.6135" lon="4.6135">
        <ele>612.9777832</ele>
      </trkpt>
      <trkpt lat="45.61342" lon="4.61344">
        <ele>611.0551758</ele>
      </trkpt>
      <trkpt lat="45.61335" lon="4.61337">
        <ele>609.6132813</ele>
      </trkpt>
      <trkpt lat="45.61328" lon="4.6133">
        <ele>607.2099609</ele>
      </trkpt>
      <trkpt lat="45.61322" lon="4.61324">
        <ele>603.8452148</ele>
      </trkpt>
      <trkpt lat="45.6132" lon="4.61321">
        <ele>603.8452148</ele>
      </trkpt>
      <trkpt lat="45.61311" lon="4.61313">
        <ele>600.9611816</ele>
      </trkpt>
      <trkpt lat="45.61301" lon="4.61302">
        <ele>599.0385742</ele>
      </trkpt>
      <trkpt lat="45.61298" lon="4.613">
        <ele>598.0773926</ele>
      </trkpt>
      <trkpt lat="45.61289" lon="4.61287">
        <ele>596.635498</ele>
      </trkpt>
      <trkpt lat="45.61282" lon="4.61274">
        <ele>593.7514648</ele>
      </trkpt>
      <trkpt lat="45.61268" lon="4.61259">
        <ele>592.3095703</ele>
      </trkpt>
      <trkpt lat="45.61262" lon="4.61257">
        <ele>591.8288574</ele>
      </trkpt>
      <trkpt lat="45.61244" lon="4.61247">
        <ele>590.8674316</ele>
      </trkpt>
      <trkpt lat="45.61231" lon="4.61233">
        <ele>589.4255371</ele>
      </trkpt>
      <trkpt lat="45.61197" lon="4.61214">
        <ele>586.060791</ele>
      </trkpt>
      <trkpt lat="45.61176" lon="4.61216">
        <ele>585.0996094</ele>
      </trkpt>
      <trkpt lat="45.61154" lon="4.61212">
        <ele>582.6962891</ele>
      </trkpt>
      <trkpt lat="45.61135" lon="4.61214">
        <ele>582.6962891</ele>
      </trkpt>
      <trkpt lat="45.61107" lon="4.61218">
        <ele>585.0996094</ele>
      </trkpt>
      <trkpt lat="45.61106" lon="4.61217">
        <ele>585.0996094</ele>
      </trkpt>
      <trkpt lat="45.61102" lon="4.612">
        <ele>584.1381836</ele>
      </trkpt>
      <trkpt lat="45.61104" lon="4.61198">
        <ele>583.1767578</ele>
      </trkpt>
      <trkpt lat="45.61104" lon="4.61198">
        <ele>583.6574707</ele>
      </trkpt>
      <trkpt lat="45.61071" lon="4.61224">
        <ele>584.6188965</ele>
      </trkpt>
      <trkpt lat="45.61037" lon="4.61277">
        <ele>581.7348633</ele>
      </trkpt>
      <trkpt lat="45.61031" lon="4.61292">
        <ele>580.2929688</ele>
      </trkpt>
      <trkpt lat="45.6101" lon="4.61331">
        <ele>579.331543</ele>
      </trkpt>
      <trkpt lat="45.61002" lon="4.61341">
        <ele>576.4477539</ele>
      </trkpt>
      <trkpt lat="45.60992" lon="4.61348">
        <ele>575.4863281</ele>
      </trkpt>
      <trkpt lat="45.60991" lon="4.61352">
        <ele>575.4863281</ele>
      </trkpt>
      <trkpt lat="45.60993" lon="4.61348">
        <ele>575.4863281</ele>
      </trkpt>
      <trkpt lat="45.6099" lon="4.6137">
        <ele>574.5251465</ele>
      </trkpt>
      <trkpt lat="45.60984" lon="4.61384">
        <ele>573.083252</ele>
      </trkpt>
      <trkpt lat="45.60982" lon="4.61396">
        <ele>569.7185059</ele>
      </trkpt>
      <trkpt lat="45.60983" lon="4.61416">
        <ele>567.7956543</ele>
      </trkpt>
      <trkpt lat="45.60978" lon="4.61427">
        <ele>566.3537598</ele>
      </trkpt>
      <trkpt lat="45.60968" lon="4.61445">
        <ele>563.4699707</ele>
      </trkpt>
      <trkpt lat="45.60959" lon="4.61459">
        <ele>562.0280762</ele>
      </trkpt>
      <trkpt lat="45.60951" lon="4.61471">
        <ele>560.1052246</ele>
      </trkpt>
      <trkpt lat="45.60947" lon="4.61478">
        <ele>556.7407227</ele>
      </trkpt>
      <trkpt lat="45.60946" lon="4.6148">
        <ele>556.7407227</ele>
      </trkpt>
      <trkpt lat="45.60926" lon="4.61512">
        <ele>553.8566895</ele>
      </trkpt>
      <trkpt lat="45.60912" lon="4.61539">
        <ele>551.4533691</ele>
      </trkpt>
      <trkpt lat="45.60902" lon="4.61558">
        <ele>547.6081543</ele>
      </trkpt>
      <trkpt lat="45.60901" lon="4.6156">
        <ele>547.6081543</ele>
      </trkpt>
      <trkpt lat="45.609" lon="4.61565">
        <ele>546.1662598</ele>
      </trkpt>
      <trkpt lat="45.60898" lon="4.61592">
        <ele>543.2821045</ele>
      </trkpt>
      <trkpt lat="45.60872" lon="4.61635">
        <ele>541.3594971</ele>
      </trkpt>
      <trkpt lat="45.60862" lon="4.61655">
        <ele>540.3983154</ele>
      </trkpt>
      <trkpt lat="45.60847" lon="4.61707">
        <ele>538.475708</ele>
      </trkpt>
      <trkpt lat="45.6084" lon="4.61752">
        <ele>536.0723877</ele>
      </trkpt>
      <trkpt lat="45.60822" lon="4.61807">
        <ele>534.6303711</ele>
      </trkpt>
      <trkpt lat="45.60792" lon="4.61861">
        <ele>535.1109619</ele>
      </trkpt>
      <trkpt lat="45.60774" lon="4.61898">
        <ele>534.6303711</ele>
      </trkpt>
      <trkpt lat="45.60764" lon="4.62006">
        <ele>533.6689453</ele>
      </trkpt>
      <trkpt lat="45.60715" lon="4.62093">
        <ele>535.1109619</ele>
      </trkpt>
      <trkpt lat="45.60663" lon="4.62166">
        <ele>535.5915527</ele>
      </trkpt>
      <trkpt lat="45.60611" lon="4.6224">
        <ele>534.1496582</ele>
      </trkpt>
      <trkpt lat="45.60591" lon="4.62276">
        <ele>531.7463379</ele>
      </trkpt>
      <trkpt lat="45.60586" lon="4.62285">
        <ele>531.2657471</ele>
      </trkpt>
      <trkpt lat="45.60566" lon="4.62362">
        <ele>528.3818359</ele>
      </trkpt>
      <trkpt lat="45.60552" lon="4.62396">
        <ele>526.9398193</ele>
      </trkpt>
      <trkpt lat="45.60534" lon="4.62426">
        <ele>525.0172119</ele>
      </trkpt>
      <trkpt lat="45.60498" lon="4.62483">
        <ele>525.0172119</ele>
      </trkpt>
      <trkpt lat="45.60483" lon="4.62503">
        <ele>524.536499</ele>
      </trkpt>
      <trkpt lat="45.60474" lon="4.62514">
        <ele>525.0172119</ele>
      </trkpt>
      <trkpt lat="45.60407" lon="4.62554">
        <ele>523.5751953</ele>
      </trkpt>
      <trkpt lat="45.60372" lon="4.626">
        <ele>520.2105713</ele>
      </trkpt>
      <trkpt lat="45.60366" lon="4.6261">
        <ele>520.2105713</ele>
      </trkpt>
      <trkpt lat="45.60356" lon="4.62631">
        <ele>518.7685547</ele>
      </trkpt>
      <trkpt lat="45.60355" lon="4.62655">
        <ele>517.807251</ele>
      </trkpt>
      <trkpt lat="45.60357" lon="4.62668">
        <ele>516.8459473</ele>
      </trkpt>
      <trkpt lat="45.60363" lon="4.62694">
        <ele>515.4040527</ele>
      </trkpt>
      <trkpt lat="45.60372" lon="4.6272">
        <ele>513.9620361</ele>
      </trkpt>
      <trkpt lat="45.60381" lon="4.62747">
        <ele>512.5200195</ele>
      </trkpt>
      <trkpt lat="45.60389" lon="4.62775">
        <ele>511.0780029</ele>
      </trkpt>
      <trkpt lat="45.60395" lon="4.62804">
        <ele>510.59729</ele>
      </trkpt>
      <trkpt lat="45.60398" lon="4.62846">
        <ele>510.59729</ele>
      </trkpt>
      <trkpt lat="45.60397" lon="4.62866">
        <ele>508.6746826</ele>
      </trkpt>
      <trkpt lat="45.60369" lon="4.62908">
        <ele>508.1940918</ele>
      </trkpt>
      <trkpt lat="45.60339" lon="4.62928">
        <ele>506.7520752</ele>
      </trkpt>
      <trkpt lat="45.60321" lon="4.62963">
        <ele>503.3874512</ele>
      </trkpt>
      <trkpt lat="45.603" lon="4.62992">
        <ele>501.4648438</ele>
      </trkpt>
      <trkpt lat="45.60295" lon="4.62997">
        <ele>500.0229492</ele>
      </trkpt>
      <trkpt lat="45.60259" lon="4.63031">
        <ele>496.6583252</ele>
      </trkpt>
      <trkpt lat="45.60248" lon="4.63036">
        <ele>495.6968994</ele>
      </trkpt>
      <trkpt lat="45.60234" lon="4.63011">
        <ele>495.6968994</ele>
      </trkpt>
      <trkpt lat="45.6023" lon="4.62992">
        <ele>492.3323975</ele>
      </trkpt>
      <trkpt lat="45.60227" lon="4.6299">
        <ele>490.40979</ele>
      </trkpt>
      <trkpt lat="45.60208" lon="4.63036">
        <ele>485.6030273</ele>
      </trkpt>
      <trkpt lat="45.60202" lon="4.63069">
        <ele>483.6804199</ele>
      </trkpt>
      <trkpt lat="45.60202" lon="4.63079">
        <ele>482.2385254</ele>
      </trkpt>
      <trkpt lat="45.60197" lon="4.63099">
        <ele>479.3544922</ele>
      </trkpt>
      <trkpt lat="45.60185" lon="4.63111">
        <ele>478.3931885</ele>
      </trkpt>
      <trkpt lat="45.6017" lon="4.63128">
        <ele>475.0286865</ele>
      </trkpt>
      <trkpt lat="45.60165" lon="4.63134">
        <ele>475.0286865</ele>
      </trkpt>
      <trkpt lat="45.60157" lon="4.63145">
        <ele>473.5866699</ele>
      </trkpt>
      <trkpt lat="45.60152" lon="4.63156">
        <ele>471.1833496</ele>
      </trkpt>
      <trkpt lat="45.60148" lon="4.63165">
        <ele>468.7800293</ele>
      </trkpt>
      <trkpt lat="45.60142" lon="4.63171">
        <ele>467.8187256</ele>
      </trkpt>
      <trkpt lat="45.60133" lon="4.63193">
        <ele>465.4155273</ele>
      </trkpt>
      <trkpt lat="45.60125" lon="4.63228">
        <ele>461.5701904</ele>
      </trkpt>
      <trkpt lat="45.60123" lon="4.63234">
        <ele>461.5701904</ele>
      </trkpt>
      <trkpt lat="45.60122" lon="4.6324">
        <ele>460.6087646</ele>
      </trkpt>
      <trkpt lat="45.60118" lon="4.63261">
        <ele>458.2055664</ele>
      </trkpt>
      <trkpt lat="45.60102" lon="4.63282">
        <ele>455.8022461</ele>
      </trkpt>
      <trkpt lat="45.60084" lon="4.63296">
        <ele>452.4376221</ele>
      </trkpt>
      <trkpt lat="45.60075" lon="4.63312">
        <ele>450.5150146</ele>
      </trkpt>
      <trkpt lat="45.60072" lon="4.63323">
        <ele>449.072998</ele>
      </trkpt>
      <trkpt lat="45.60072" lon="4.63339">
        <ele>447.1502686</ele>
      </trkpt>
      <trkpt lat="45.60078" lon="4.6336">
        <ele>446.6696777</ele>
      </trkpt>
      <trkpt lat="45.60129" lon="4.63467">
        <ele>444.7470703</ele>
      </trkpt>
      <trkpt lat="45.60139" lon="4.63516">
        <ele>441.8631592</ele>
      </trkpt>
      <trkpt lat="45.60141" lon="4.63526">
        <ele>440.9018555</ele>
      </trkpt>
      <trkpt lat="45.60159" lon="4.63567">
        <ele>438.979126</ele>
      </trkpt>
      <trkpt lat="45.60198" lon="4.63626">
        <ele>435.614502</ele>
      </trkpt>
      <trkpt lat="45.60219" lon="4.63659">
        <ele>434.1726074</ele>
      </trkpt>
      <trkpt lat="45.60253" lon="4.63717">
        <ele>429.8465576</ele>
      </trkpt>
      <trkpt lat="45.60266" lon="4.63737">
        <ele>428.885376</ele>
      </trkpt>
      <trkpt lat="45.60279" lon="4.63753">
        <ele>426.9627686</ele>
      </trkpt>
      <trkpt lat="45.60285" lon="4.63761">
        <ele>424.5594482</ele>
      </trkpt>
      <trkpt lat="45.6029" lon="4.63803">
        <ele>422.6367188</ele>
      </trkpt>
      <trkpt lat="45.60286" lon="4.63826">
        <ele>421.1948242</ele>
      </trkpt>
      <trkpt lat="45.60287" lon="4.63843">
        <ele>418.7915039</ele>
      </trkpt>
      <trkpt lat="45.60311" lon="4.63854">
        <ele>417.3496094</ele>
      </trkpt>
      <trkpt lat="45.60317" lon="4.63852">
        <ele>417.3496094</ele>
      </trkpt>
      <trkpt lat="45.60332" lon="4.63846">
        <ele>416.8688965</ele>
      </trkpt>
      <trkpt lat="45.60345" lon="4.6385">
        <ele>417.3496094</ele>
      </trkpt>
      <trkpt lat="45.60398" lon="4.63904">
        <ele>420.2333984</ele>
      </trkpt>
      <trkpt lat="45.60429" lon="4.63935">
        <ele>423.1174316</ele>
      </trkpt>
      <trkpt lat="45.60449" lon="4.63929">
        <ele>424.5594482</ele>
      </trkpt>
      <trkpt lat="45.60465" lon="4.63889">
        <ele>426.9627686</ele>
      </trkpt>
      <trkpt lat="45.60495" lon="4.63859">
        <ele>429.3659668</ele>
      </trkpt>
      <trkpt lat="45.60519" lon="4.63831">
        <ele>432.25</ele>
      </trkpt>
      <trkpt lat="45.60526" lon="4.63824">
        <ele>433.2113037</ele>
      </trkpt>
      <trkpt lat="45.6053" lon="4.63818">
        <ele>433.2113037</ele>
      </trkpt>
      <trkpt lat="45.60554" lon="4.63795">
        <ele>436.0952148</ele>
      </trkpt>
      <trkpt lat="45.60574" lon="4.63772">
        <ele>438.979126</ele>
      </trkpt>
      <trkpt lat="45.60595" lon="4.6374">
        <ele>440.9018555</ele>
      </trkpt>
      <trkpt lat="45.60614" lon="4.63713">
        <ele>443.7857666</ele>
      </trkpt>
      <trkpt lat="45.60617" lon="4.63711">
        <ele>444.2664795</ele>
      </trkpt>
      <trkpt lat="45.60624" lon="4.63719">
        <ele>444.7470703</ele>
      </trkpt>
      <trkpt lat="45.60645" lon="4.63764">
        <ele>445.708374</ele>
      </trkpt>
      <trkpt lat="45.60677" lon="4.63785">
        <ele>445.708374</ele>
      </trkpt>
      <trkpt lat="45.607" lon="4.63795">
        <ele>447.1502686</ele>
      </trkpt>
      <trkpt lat="45.607" lon="4.63795">
        <ele>446.1890869</ele>
      </trkpt>
      <trkpt lat="45.60702" lon="4.63797">
        <ele>446.6696777</ele>
      </trkpt>
      <trkpt lat="45.60723" lon="4.63862">
        <ele>445.2276611</ele>
      </trkpt>
      <trkpt lat="45.60731" lon="4.6389">
        <ele>443.7857666</ele>
      </trkpt>
      <trkpt lat="45.60757" lon="4.63967">
        <ele>440.9018555</ele>
      </trkpt>
      <trkpt lat="45.60768" lon="4.64002">
        <ele>438.4985352</ele>
      </trkpt>
      <trkpt lat="45.60784" lon="4.64037">
        <ele>435.614502</ele>
      </trkpt>
      <trkpt lat="45.60788" lon="4.64043">
        <ele>433.6918945</ele>
      </trkpt>
      <trkpt lat="45.60794" lon="4.6405">
        <ele>433.2113037</ele>
      </trkpt>
      <trkpt lat="45.60796" lon="4.64051">
        <ele>433.2113037</ele>
      </trkpt>
      <trkpt lat="45.60802" lon="4.64059">
        <ele>432.7307129</ele>
      </trkpt>
      <trkpt lat="45.60826" lon="4.64077">
        <ele>431.2885742</ele>
      </trkpt>
      <trkpt lat="45.60894" lon="4.64089">
        <ele>427.9239502</ele>
      </trkpt>
      <trkpt lat="45.6094" lon="4.64086">
        <ele>426.0013428</ele>
      </trkpt>
      <trkpt lat="45.60969" lon="4.64085">
        <ele>425.520752</ele>
      </trkpt>
      <trkpt lat="45.61015" lon="4.64054">
        <ele>422.1560059</ele>
      </trkpt>
      <trkpt lat="45.61035" lon="4.64021">
        <ele>420.2333984</ele>
      </trkpt>
      <trkpt lat="45.61055" lon="4.63972">
        <ele>417.8302002</ele>
      </trkpt>
      <trkpt lat="45.61064" lon="4.6395">
        <ele>416.8688965</ele>
      </trkpt>
      <trkpt lat="45.61088" lon="4.63939">
        <ele>413.0235596</ele>
      </trkpt>
      <trkpt lat="45.6109" lon="4.63946">
        <ele>413.0235596</ele>
      </trkpt>
      <trkpt lat="45.61093" lon="4.63961">
        <ele>413.0235596</ele>
      </trkpt>
      <trkpt lat="45.61093" lon="4.64051">
        <ele>414.4654541</ele>
      </trkpt>
      <trkpt lat="45.61094" lon="4.64122">
        <ele>417.8302002</ele>
      </trkpt>
      <trkpt lat="45.61096" lon="4.64199">
        <ele>420.2333984</ele>
      </trkpt>
      <trkpt lat="45.61107" lon="4.64275">
        <ele>422.1560059</ele>
      </trkpt>
      <trkpt lat="45.61113" lon="4.64363">
        <ele>423.1174316</ele>
      </trkpt>
      <trkpt lat="45.61113" lon="4.64369">
        <ele>423.1174316</ele>
      </trkpt>
      <trkpt lat="45.61116" lon="4.64451">
        <ele>423.1174316</ele>
      </trkpt>
      <trkpt lat="45.61148" lon="4.64534">
        <ele>422.6367188</ele>
      </trkpt>
      <trkpt lat="45.61153" lon="4.64539">
        <ele>422.6367188</ele>
      </trkpt>
      <trkpt lat="45.61195" lon="4.64574">
        <ele>420.7141113</ele>
      </trkpt>
      <trkpt lat="45.61207" lon="4.64588">
        <ele>421.1948242</ele>
      </trkpt>
      <trkpt lat="45.61244" lon="4.64647">
        <ele>421.1948242</ele>
      </trkpt>
      <trkpt lat="45.61286" lon="4.64691">
        <ele>423.1174316</ele>
      </trkpt>
      <trkpt lat="45.61327" lon="4.64734">
        <ele>426.4820557</ele>
      </trkpt>
      <trkpt lat="45.61338" lon="4.6475">
        <ele>426.9627686</ele>
      </trkpt>
      <trkpt lat="45.61366" lon="4.64835">
        <ele>426.4820557</ele>
      </trkpt>
      <trkpt lat="45.61417" lon="4.64931">
        <ele>424.0787354</ele>
      </trkpt>
      <trkpt lat="45.61433" lon="4.64969">
        <ele>422.1560059</ele>
      </trkpt>
      <trkpt lat="45.61447" lon="4.65014">
        <ele>419.7528076</ele>
      </trkpt>
      <trkpt lat="45.6145" lon="4.65029">
        <ele>418.310791</ele>
      </trkpt>
      <trkpt lat="45.61437" lon="4.65059">
        <ele>416.3881836</ele>
      </trkpt>
      <trkpt lat="45.61417" lon="4.65088">
        <ele>415.9074707</ele>
      </trkpt>
      <trkpt lat="45.61408" lon="4.65131">
        <ele>413.5042725</ele>
      </trkpt>
      <trkpt lat="45.61408" lon="4.65164">
        <ele>412.0622559</ele>
      </trkpt>
      <trkpt lat="45.61412" lon="4.65217">
        <ele>410.1396484</ele>
      </trkpt>
      <trkpt lat="45.61427" lon="4.65252">
        <ele>408.217041</ele>
      </trkpt>
      <trkpt lat="45.6145" lon="4.6528">
        <ele>407.2556152</ele>
      </trkpt>
      <trkpt lat="45.61472" lon="4.65324">
        <ele>406.7749023</ele>
      </trkpt>
      <trkpt lat="45.6152" lon="4.65454">
        <ele>406.2943115</ele>
      </trkpt>
      <trkpt lat="45.61522" lon="4.65463">
        <ele>406.2943115</ele>
      </trkpt>
      <trkpt lat="45.61526" lon="4.65519">
        <ele>403.8911133</ele>
      </trkpt>
      <trkpt lat="45.61523" lon="4.65554">
        <ele>403.8911133</ele>
      </trkpt>
      <trkpt lat="45.61502" lon="4.6565">
        <ele>403.4104004</ele>
      </trkpt>
      <trkpt lat="45.61499" lon="4.65677">
        <ele>402.9296875</ele>
      </trkpt>
      <trkpt lat="45.61498" lon="4.65706">
        <ele>401.487793</ele>
      </trkpt>
      <trkpt lat="45.61497" lon="4.65716">
        <ele>401.0070801</ele>
      </trkpt>
      <trkpt lat="45.61475" lon="4.65807">
        <ele>396.6811523</ele>
      </trkpt>
      <trkpt lat="45.61472" lon="4.65819">
        <ele>396.6811523</ele>
      </trkpt>
      <trkpt lat="45.61459" lon="4.65868">
        <ele>395.7198486</ele>
      </trkpt>
      <trkpt lat="45.6145" lon="4.65905">
        <ele>393.7972412</ele>
      </trkpt>
      <trkpt lat="45.61434" lon="4.65982">
        <ele>391.8745117</ele>
      </trkpt>
      <trkpt lat="45.61433" lon="4.6602">
        <ele>390.4326172</ele>
      </trkpt>
      <trkpt lat="45.61436" lon="4.66057">
        <ele>389.4711914</ele>
      </trkpt>
      <trkpt lat="45.61441" lon="4.66082">
        <ele>388.9906006</ele>
      </trkpt>
      <trkpt lat="45.61469" lon="4.66135">
        <ele>385.1453857</ele>
      </trkpt>
      <trkpt lat="45.61482" lon="4.66156">
        <ele>384.6647949</ele>
      </trkpt>
      <trkpt lat="45.61529" lon="4.66238">
        <ele>380.3387451</ele>
      </trkpt>
      <trkpt lat="45.61543" lon="4.66262">
        <ele>379.3774414</ele>
      </trkpt>
      <trkpt lat="45.61549" lon="4.66273">
        <ele>376.9742432</ele>
      </trkpt>
      <trkpt lat="45.61545" lon="4.66343">
        <ele>371.6868896</ele>
      </trkpt>
      <trkpt lat="45.61526" lon="4.66385">
        <ele>370.244873</ele>
      </trkpt>
      <trkpt lat="45.61513" lon="4.66412">
        <ele>368.3222656</ele>
      </trkpt>
      <trkpt lat="45.61508" lon="4.66426">
        <ele>366.3995361</ele>
      </trkpt>
      <trkpt lat="45.61501" lon="4.66457">
        <ele>364.9576416</ele>
      </trkpt>
      <trkpt lat="45.615" lon="4.66492">
        <ele>363.0350342</ele>
      </trkpt>
      <trkpt lat="45.61497" lon="4.66526">
        <ele>360.6317139</ele>
      </trkpt>
      <trkpt lat="45.61494" lon="4.66542">
        <ele>357.2670898</ele>
      </trkpt>
      <trkpt lat="45.61485" lon="4.66574">
        <ele>352.4605713</ele>
      </trkpt>
      <trkpt lat="45.61465" lon="4.66632">
        <ele>353.9025879</ele>
      </trkpt>
      <trkpt lat="45.61458" lon="4.66658">
        <ele>357.2670898</ele>
      </trkpt>
      <trkpt lat="45.61455" lon="4.6667">
        <ele>357.2670898</ele>
      </trkpt>
      <trkpt lat="45.61458" lon="4.66728">
        <ele>356.786377</ele>
      </trkpt>
      <trkpt lat="45.61482" lon="4.66808">
        <ele>353.421875</ele>
      </trkpt>
      <trkpt lat="45.61486" lon="4.66819">
        <ele>353.421875</ele>
      </trkpt>
      <trkpt lat="45.61493" lon="4.66843">
        <ele>351.4991455</ele>
      </trkpt>
      <trkpt lat="45.615" lon="4.66867">
        <ele>351.9798584</ele>
      </trkpt>
      <trkpt lat="45.61536" lon="4.66942">
        <ele>348.1346436</ele>
      </trkpt>
      <trkpt lat="45.61551" lon="4.66969">
        <ele>346.2120361</ele>
      </trkpt>
      <trkpt lat="45.61551" lon="4.66983">
        <ele>342.84729</ele>
      </trkpt>
      <trkpt lat="45.61551" lon="4.6699">
        <ele>342.84729</ele>
      </trkpt>
      <trkpt lat="45.61552" lon="4.6701">
        <ele>341.8859863</ele>
      </trkpt>
      <trkpt lat="45.61565" lon="4.67026">
        <ele>342.84729</ele>
      </trkpt>
      <trkpt lat="45.61579" lon="4.67048">
        <ele>342.84729</ele>
      </trkpt>
      <trkpt lat="45.61599" lon="4.6706">
        <ele>343.3278809</ele>
      </trkpt>
      <trkpt lat="45.6162" lon="4.67057">
        <ele>343.3278809</ele>
      </trkpt>
      <trkpt lat="45.61632" lon="4.67048">
        <ele>343.3278809</ele>
      </trkpt>
      <trkpt lat="45.61635" lon="4.67046">
        <ele>343.3278809</ele>
      </trkpt>
      <trkpt lat="45.61635" lon="4.67039">
        <ele>342.3666992</ele>
      </trkpt>
      <trkpt lat="45.61642" lon="4.67069">
        <ele>320</ele>
        <time>2005-06-01T13:23:28Z</time>
      </trkpt>
      <trkpt lat="45.6158" lon="4.67052">
        <ele>332</ele>
        <time>2005-06-01T13:29:54Z</time>
      </trkpt>
      <trkpt lat="45.6155" lon="4.67">
        <ele>333</ele>
        <time>2005-06-01T13:30:48Z</time>
      </trkpt>
      <trkpt lat="45.61529" lon="4.6694">
        <ele>337</ele>
        <time>2005-06-01T13:31:04Z</time>
      </trkpt>
      <trkpt lat="45.61574" lon="4.66952">
        <ele>334</ele>
        <time>2005-06-01T13:31:38Z</time>
      </trkpt>
      <trkpt lat="45.61595" lon="4.66893">
        <ele>343</ele>
        <time>2005-06-01T13:32:03Z</time>
      </trkpt>
      <trkpt lat="45.61624" lon="4.6684">
        <ele>348</ele>
        <time>2005-06-01T13:32:27Z</time>
      </trkpt>
      <trkpt lat="45.6165" lon="4.66785">
        <ele>351</ele>
        <time>2005-06-01T13:32:43Z</time>
      </trkpt>
      <trkpt lat="45.61662" lon="4.66719">
        <ele>357</ele>
        <time>2005-06-01T13:33:02Z</time>
      </trkpt>
      <trkpt lat="45.61703" lon="4.66691">
        <ele>359</ele>
        <time>2005-06-01T13:33:16Z</time>
      </trkpt>
      <trkpt lat="45.61735" lon="4.66647">
        <ele>360</ele>
        <time>2005-06-01T13:33:29Z</time>
      </trkpt>
      <trkpt lat="45.61715" lon="4.66586">
        <ele>363</ele>
        <time>2005-06-01T13:33:45Z</time>
      </trkpt>
      <trkpt lat="45.617" lon="4.66526">
        <ele>367</ele>
        <time>2005-06-01T13:34:04Z</time>
      </trkpt>
      <trkpt lat="45.61717" lon="4.66462">
        <ele>370</ele>
        <time>2005-06-01T13:34:32Z</time>
      </trkpt>
      <trkpt lat="45.61732" lon="4.66398">
        <ele>372</ele>
        <time>2005-06-01T13:34:45Z</time>
      </trkpt>
      <trkpt lat="45.61746" lon="4.66335">
        <ele>373</ele>
        <time>2005-06-01T13:34:57Z</time>
      </trkpt>
      <trkpt lat="45.6177" lon="4.66279">
        <ele>375</ele>
        <time>2005-06-01T13:35:11Z</time>
      </trkpt>
      <trkpt lat="45.6179" lon="4.6622">
        <ele>378</ele>
        <time>2005-06-01T13:35:25Z</time>
      </trkpt>
      <trkpt lat="45.61805" lon="4.66155">
        <ele>382</ele>
        <time>2005-06-01T13:35:44Z</time>
      </trkpt>
      <trkpt lat="45.61807" lon="4.66089">
        <ele>384</ele>
        <time>2005-06-01T13:35:59Z</time>
      </trkpt>
      <trkpt lat="45.61801" lon="4.66021">
        <ele>388</ele>
        <time>2005-06-01T13:36:16Z</time>
      </trkpt>
      <trkpt lat="45.61807" lon="4.65955">
        <ele>393</ele>
        <time>2005-06-01T13:36:34Z</time>
      </trkpt>
      <trkpt lat="45.61777" lon="4.65902">
        <ele>397</ele>
        <time>2005-06-01T13:36:52Z</time>
      </trkpt>
      <trkpt lat="45.61805" lon="4.65851">
        <ele>403</ele>
        <time>2005-06-01T13:37:22Z</time>
      </trkpt>
      <trkpt lat="45.6185" lon="4.6583">
        <ele>405</ele>
        <time>2005-06-01T13:37:38Z</time>
      </trkpt>
      <trkpt lat="45.61883" lon="4.65783">
        <ele>406</ele>
        <time>2005-06-01T13:37:52Z</time>
      </trkpt>
      <trkpt lat="45.619" lon="4.65722">
        <ele>409</ele>
        <time>2005-06-01T13:38:08Z</time>
      </trkpt>
      <trkpt lat="45.61912" lon="4.65657">
        <ele>413</ele>
        <time>2005-06-01T13:38:30Z</time>
      </trkpt>
      <trkpt lat="45.61926" lon="4.65592">
        <ele>416</ele>
        <time>2005-06-01T13:38:51Z</time>
      </trkpt>
      <trkpt lat="45.6194" lon="4.65523">
        <ele>415</ele>
        <time>2005-06-01T13:39:03Z</time>
      </trkpt>
      <trkpt lat="45.6196" lon="4.65464">
        <ele>411</ele>
        <time>2005-06-01T13:39:10Z</time>
      </trkpt>
      <trkpt lat="45.61981" lon="4.65405">
        <ele>409</ele>
        <time>2005-06-01T13:39:16Z</time>
      </trkpt>
      <trkpt lat="45.62003" lon="4.6534">
        <ele>408</ele>
        <time>2005-06-01T13:39:23Z</time>
      </trkpt>
      <trkpt lat="45.6202" lon="4.65277">
        <ele>408</ele>
        <time>2005-06-01T13:39:32Z</time>
      </trkpt>
      <trkpt lat="45.62038" lon="4.65208">
        <ele>410</ele>
      </trkpt>
      <trkpt lat="45.62032" lon="4.65149">
        <ele>412</ele>
        <time>2005-06-01T13:40:40Z</time>
      </trkpt>
      <trkpt lat="45.62024" lon="4.65082">
        <ele>415</ele>
        <time>2005-06-01T13:40:54Z</time>
      </trkpt>
      <trkpt lat="45.6201" lon="4.65017">
        <ele>415</ele>
        <time>2005-06-01T13:41:06Z</time>
      </trkpt>
      <trkpt lat="45.61991" lon="4.64957">
        <ele>417</ele>
        <time>2005-06-01T13:41:17Z</time>
      </trkpt>
      <trkpt lat="45.61972" lon="4.64893">
        <ele>420</ele>
        <time>2005-06-01T13:41:30Z</time>
      </trkpt>
      <trkpt lat="45.61956" lon="4.64828">
        <ele>423</ele>
        <time>2005-06-01T13:41:45Z</time>
      </trkpt>
      <trkpt lat="45.6195" lon="4.64763">
        <ele>423</ele>
        <time>2005-06-01T13:41:56Z</time>
      </trkpt>
      <trkpt lat="45.61943" lon="4.64699">
        <ele>423</ele>
        <time>2005-06-01T13:42:06Z</time>
      </trkpt>
      <trkpt lat="45.61925" lon="4.64636">
        <ele>424</ele>
        <time>2005-06-01T13:42:19Z</time>
      </trkpt>
      <trkpt lat="45.61909" lon="4.64573">
        <ele>427</ele>
        <time>2005-06-01T13:42:33Z</time>
      </trkpt>
      <trkpt lat="45.61873" lon="4.64525">
        <ele>427</ele>
        <time>2005-06-01T13:42:47Z</time>
      </trkpt>
      <trkpt lat="45.61829" lon="4.64516">
        <ele>431</ele>
        <time>2005-06-01T13:43:02Z</time>
      </trkpt>
      <trkpt lat="45.61807" lon="4.64453">
        <ele>436</ele>
        <time>2005-06-01T13:43:23Z</time>
      </trkpt>
      <trkpt lat="45.61795" lon="4.6439">
        <ele>440</ele>
        <time>2005-06-01T13:43:46Z</time>
      </trkpt>
      <trkpt lat="45.61792" lon="4.64325">
        <ele>446</ele>
        <time>2005-06-01T13:44:28Z</time>
      </trkpt>
      <trkpt lat="45.61794" lon="4.64261">
        <ele>448</ele>
        <time>2005-06-01T13:44:54Z</time>
      </trkpt>
      <trkpt lat="45.61784" lon="4.64196">
        <ele>452</ele>
        <time>2005-06-01T13:45:37Z</time>
      </trkpt>
      <trkpt lat="45.61772" lon="4.64133">
        <ele>457</ele>
        <time>2005-06-01T13:45:55Z</time>
      </trkpt>
      <trkpt lat="45.61763" lon="4.64069">
        <ele>460</ele>
        <time>2005-06-01T13:46:13Z</time>
      </trkpt>
      <trkpt lat="45.6179" lon="4.64012">
        <ele>465</ele>
        <time>2005-06-01T13:46:35Z</time>
      </trkpt>
      <trkpt lat="45.61827" lon="4.6397">
        <ele>468</ele>
        <time>2005-06-01T13:47:00Z</time>
      </trkpt>
      <trkpt lat="45.61863" lon="4.63932">
        <ele>472</ele>
        <time>2005-06-01T13:47:28Z</time>
      </trkpt>
      <trkpt lat="45.61905" lon="4.63907">
        <ele>478</ele>
        <time>2005-06-01T13:47:52Z</time>
      </trkpt>
      <trkpt lat="45.6195" lon="4.63893">
        <ele>481</ele>
        <time>2005-06-01T13:48:19Z</time>
      </trkpt>
      <trkpt lat="45.61995" lon="4.63916">
        <ele>485</ele>
        <time>2005-06-01T13:48:44Z</time>
      </trkpt>
      <trkpt lat="45.62034" lon="4.63957">
        <ele>487</ele>
        <time>2005-06-01T13:49:03Z</time>
      </trkpt>
      <trkpt lat="45.62078" lon="4.63974">
        <ele>486</ele>
        <time>2005-06-01T13:49:23Z</time>
      </trkpt>
      <trkpt lat="45.62115" lon="4.63934">
        <ele>491</ele>
        <time>2005-06-01T13:49:59Z</time>
      </trkpt>
      <trkpt lat="45.6216" lon="4.6393">
        <ele>493</ele>
        <time>2005-06-01T13:50:12Z</time>
      </trkpt>
      <trkpt lat="45.6221" lon="4.63926">
        <ele>495</ele>
        <time>2005-06-01T13:50:24Z</time>
      </trkpt>
      <trkpt lat="45.62258" lon="4.63928">
        <ele>496</ele>
        <time>2005-06-01T13:50:35Z</time>
      </trkpt>
      <trkpt lat="45.62303" lon="4.63916">
        <ele>499</ele>
        <time>2005-06-01T13:50:49Z</time>
      </trkpt>
      <trkpt lat="45.62294" lon="4.63928">
        <ele>507</ele>
      </trkpt>
      <trkpt lat="45.62332" lon="4.63928">
        <ele>507</ele>
      </trkpt>
      <trkpt lat="45.62346" lon="4.6394">
        <ele>507</ele>
      </trkpt>
      <trkpt lat="45.62464" lon="4.63949">
        <ele>485</ele>
      </trkpt>
      <trkpt lat="45.62501" lon="4.63958">
        <ele>485</ele>
      </trkpt>
      <trkpt lat="45.62555" lon="4.64">
        <ele>480</ele>
      </trkpt>
      <trkpt lat="45.62609" lon="4.64026">
        <ele>480</ele>
      </trkpt>
      <trkpt lat="45.62646" lon="4.64043">
        <ele>468</ele>
      </trkpt>
      <trkpt lat="45.62709" lon="4.6408">
        <ele>459</ele>
      </trkpt>
      <trkpt lat="45.62756" lon="4.64084">
        <ele>459</ele>
      </trkpt>
      <trkpt lat="45.62773" lon="4.64062">
        <ele>459</ele>
      </trkpt>
      <trkpt lat="45.62772" lon="4.64042">
        <ele>459</ele>
      </trkpt>
      <trkpt lat="45.62771" lon="4.64019">
        <ele>450</ele>
      </trkpt>
      <trkpt lat="45.62765" lon="4.63999">
        <ele>450</ele>
      </trkpt>
      <trkpt lat="45.62759" lon="4.63986">
        <ele>450</ele>
      </trkpt>
      <trkpt lat="45.62746" lon="4.63977">
        <ele>450</ele>
      </trkpt>
      <trkpt lat="45.62738" lon="4.63965">
        <ele>450</ele>
      </trkpt>
      <trkpt lat="45.62733" lon="4.63952">
        <ele>452</ele>
      </trkpt>
      <trkpt lat="45.62738" lon="4.63942">
        <ele>452</ele>
      </trkpt>
      <trkpt lat="45.6275" lon="4.6394">
        <ele>452</ele>
      </trkpt>
      <trkpt lat="45.62771" lon="4.63947">
        <ele>452</ele>
      </trkpt>
      <trkpt lat="45.6279" lon="4.63955">
        <ele>452</ele>
      </trkpt>
      <trkpt lat="45.62817" lon="4.63978">
        <ele>439</ele>
      </trkpt>
      <trkpt lat="45.6284" lon="4.63999">
        <ele>439</ele>
      </trkpt>
      <trkpt lat="45.62933" lon="4.64039">
        <ele>428</ele>
      </trkpt>
      <trkpt lat="45.62945" lon="4.64047">
        <ele>429</ele>
      </trkpt>
      <trkpt lat="45.62953" lon="4.64058">
        <ele>429</ele>
      </trkpt>
      <trkpt lat="45.63031" lon="4.6421">
        <ele>418</ele>
      </trkpt>
      <trkpt lat="45.63112" lon="4.64355">
        <ele>422</ele>
      </trkpt>
      <trkpt lat="45.63124" lon="4.64362">
        <ele>422</ele>
      </trkpt>
      <trkpt lat="45.63154" lon="4.64359">
        <ele>431</ele>
      </trkpt>
      <trkpt lat="45.6325" lon="4.64341">
        <ele>437</ele>
      </trkpt>
      <trkpt lat="45.63345" lon="4.64324">
        <ele>439</ele>
      </trkpt>
      <trkpt lat="45.63399" lon="4.64295">
        <ele>442</ele>
      </trkpt>
      <trkpt lat="45.634" lon="4.64281">
        <ele>448</ele>
      </trkpt>
      <trkpt lat="45.63397" lon="4.64263">
        <ele>448</ele>
      </trkpt>
      <trkpt lat="45.63392" lon="4.64251">
        <ele>448</ele>
      </trkpt>
      <trkpt lat="45.63382" lon="4.64242">
        <ele>448</ele>
      </trkpt>
      <trkpt lat="45.63362" lon="4.64246">
        <ele>449</ele>
      </trkpt>
      <trkpt lat="45.63344" lon="4.64247">
        <ele>449</ele>
      </trkpt>
      <trkpt lat="45.6333" lon="4.64244">
        <ele>449</ele>
      </trkpt>
      <trkpt lat="45.63319" lon="4.64237">
        <ele>449</ele>
      </trkpt>
      <trkpt lat="45.63259" lon="4.64121">
        <ele>458</ele>
      </trkpt>
      <trkpt lat="45.63253" lon="4.641">
        <ele>458</ele>
      </trkpt>
      <trkpt lat="45.63255" lon="4.64076">
        <ele>458</ele>
      </trkpt>
      <trkpt lat="45.63265" lon="4.64032">
        <ele>463</ele>
      </trkpt>
      <trkpt lat="45.63326" lon="4.63906">
        <ele>474</ele>
      </trkpt>
      <trkpt lat="45.63332" lon="4.63906">
        <ele>474</ele>
      </trkpt>
      <trkpt lat="45.63358" lon="4.6397">
        <ele>471</ele>
      </trkpt>
      <trkpt lat="45.63364" lon="4.64001">
        <ele>471</ele>
      </trkpt>
      <trkpt lat="45.63382" lon="4.64026">
        <ele>474</ele>
      </trkpt>
      <trkpt lat="45.63383" lon="4.64037">
        <ele>474</ele>
      </trkpt>
      <trkpt lat="45.63378" lon="4.64072">
        <ele>466</ele>
      </trkpt>
      <trkpt lat="45.63368" lon="4.64125">
        <ele>456</ele>
      </trkpt>
      <trkpt lat="45.63374" lon="4.64172">
        <ele>456</ele>
      </trkpt>
      <trkpt lat="45.63385" lon="4.64228">
        <ele>448</ele>
      </trkpt>
      <trkpt lat="45.63402" lon="4.64245">
        <ele>448</ele>
      </trkpt>
      <trkpt lat="45.63412" lon="4.64275">
        <ele>448</ele>
      </trkpt>
      <trkpt lat="45.63423" lon="4.64282">
        <ele>448</ele>
      </trkpt>
      <trkpt lat="45.63436" lon="4.64318">
        <ele>442</ele>
      </trkpt>
      <trkpt lat="45.63447" lon="4.64363">
        <ele>442</ele>
      </trkpt>
      <trkpt lat="45.63444" lon="4.64398">
        <ele>442</ele>
      </trkpt>
      <trkpt lat="45.6344" lon="4.64424">
        <ele>442</ele>
      </trkpt>
      <trkpt lat="45.63431" lon="4.64451">
        <ele>442</ele>
      </trkpt>
      <trkpt lat="45.63429" lon="4.64503">
        <ele>446</ele>
      </trkpt>
      <trkpt lat="45.63431" lon="4.64537">
        <ele>446</ele>
      </trkpt>
      <trkpt lat="45.63439" lon="4.64574">
        <ele>448</ele>
      </trkpt>
      <trkpt lat="45.63454" lon="4.6463">
        <ele>450</ele>
      </trkpt>
      <trkpt lat="45.63441" lon="4.64645">
        <ele>450</ele>
      </trkpt>
      <trkpt lat="45.63385" lon="4.64691">
        <ele>450</ele>
      </trkpt>
      <trkpt lat="45.63421" lon="4.64758">
        <ele>447</ele>
      </trkpt>
      <trkpt lat="45.6343" lon="4.64963">
        <ele>425</ele>
      </trkpt>
      <trkpt lat="45.63429" lon="4.64996">
        <ele>425</ele>
      </trkpt>
      <trkpt lat="45.63424" lon="4.65019">
        <ele>425</ele>
      </trkpt>
      <trkpt lat="45.63408" lon="4.65069">
        <ele>417</ele>
      </trkpt>
      <trkpt lat="45.634" lon="4.65143">
        <ele>409</ele>
      </trkpt>
      <trkpt lat="45.63401" lon="4.65171">
        <ele>409</ele>
      </trkpt>
      <trkpt lat="45.63412" lon="4.6519">
        <ele>409</ele>
      </trkpt>
      <trkpt lat="45.63443" lon="4.65224">
        <ele>405</ele>
      </trkpt>
      <trkpt lat="45.63451" lon="4.6524">
        <ele>405</ele>
      </trkpt>
      <trkpt lat="45.6346" lon="4.65258">
        <ele>410</ele>
      </trkpt>
      <trkpt lat="45.63472" lon="4.65297">
        <ele>415</ele>
      </trkpt>
      <trkpt lat="45.6333" lon="4.65277">
        <ele>404</ele>
      </trkpt>
      <trkpt lat="45.63304" lon="4.65276">
        <ele>404</ele>
      </trkpt>
      <trkpt lat="45.63283" lon="4.65281">
        <ele>403</ele>
      </trkpt>
      <trkpt lat="45.63269" lon="4.65294">
        <ele>413</ele>
      </trkpt>
      <trkpt lat="45.63247" lon="4.6532">
        <ele>413</ele>
      </trkpt>
      <trkpt lat="45.63187" lon="4.65436">
        <ele>408</ele>
      </trkpt>
      <trkpt lat="45.63234" lon="4.65447">
        <ele>418</ele>
      </trkpt>
      <trkpt lat="45.63265" lon="4.6545">
        <ele>418</ele>
      </trkpt>
      <trkpt lat="45.63315" lon="4.65456">
        <ele>425</ele>
      </trkpt>
      <trkpt lat="45.63361" lon="4.65474">
        <ele>428</ele>
      </trkpt>
      <trkpt lat="45.6343" lon="4.65499">
        <ele>431</ele>
      </trkpt>
      <trkpt lat="45.63486" lon="4.65537">
        <ele>431</ele>
      </trkpt>
      <trkpt lat="45.63566" lon="4.65582">
        <ele>439</ele>
      </trkpt>
      <trkpt lat="45.63678" lon="4.6562">
        <ele>439</ele>
      </trkpt>
      <trkpt lat="45.63763" lon="4.65637">
        <ele>460</ele>
      </trkpt>
      <trkpt lat="45.63811" lon="4.6566">
        <ele>455</ele>
      </trkpt>
      <trkpt lat="45.63851" lon="4.65689">
        <ele>455</ele>
      </trkpt>
      <trkpt lat="45.63869" lon="4.65708">
        <ele>455</ele>
      </trkpt>
      <trkpt lat="45.64337" lon="4.66212">
        <ele>464</ele>
      </trkpt>
      <trkpt lat="45.64382" lon="4.66266">
        <ele>475</ele>
      </trkpt>
      <trkpt lat="45.64429" lon="4.66326">
        <ele>469</ele>
      </trkpt>
      <trkpt lat="45.64449" lon="4.66373">
        <ele>469</ele>
      </trkpt>
      <trkpt lat="45.64466" lon="4.66415">
        <ele>473</ele>
      </trkpt>
      <trkpt lat="45.64512" lon="4.66488">
        <ele>468</ele>
      </trkpt>
      <trkpt lat="45.64526" lon="4.6652">
        <ele>468</ele>
      </trkpt>
      <trkpt lat="45.64529" lon="4.66583">
        <ele>464</ele>
      </trkpt>
      <trkpt lat="45.64549" lon="4.66696">
        <ele>477</ele>
      </trkpt>
      <trkpt lat="45.64568" lon="4.66755">
        <ele>478</ele>
      </trkpt>
      <trkpt lat="45.64592" lon="4.66795">
        <ele>478</ele>
      </trkpt>
      <trkpt lat="45.64606" lon="4.66851">
        <ele>478</ele>
      </trkpt>
      <trkpt lat="45.64631" lon="4.66912">
        <ele>490</ele>
      </trkpt>
      <trkpt lat="45.64658" lon="4.66968">
        <ele>488</ele>
      </trkpt>
      <trkpt lat="45.64703" lon="4.67028">
        <ele>488</ele>
      </trkpt>
      <trkpt lat="45.64693" lon="4.6708">
        <ele>490</ele>
      </trkpt>
      <trkpt lat="45.64676" lon="4.67142">
        <ele>492</ele>
      </trkpt>
      <trkpt lat="45.64659" lon="4.67182">
        <ele>492</ele>
      </trkpt>
      <trkpt lat="45.64649" lon="4.67204">
        <ele>492</ele>
      </trkpt>
      <trkpt lat="45.6465" lon="4.67254">
        <ele>489</ele>
      </trkpt>
      <trkpt lat="45.64654" lon="4.67312">
        <ele>487</ele>
      </trkpt>
      <trkpt lat="45.64658" lon="4.67337">
        <ele>487</ele>
      </trkpt>
      <trkpt lat="45.64679" lon="4.6738">
        <ele>484</ele>
      </trkpt>
      <trkpt lat="45.64705" lon="4.67416">
        <ele>484</ele>
      </trkpt>
      <trkpt lat="45.6473" lon="4.67466">
        <ele>474</ele>
      </trkpt>
      <trkpt lat="45.64732" lon="4.67491">
        <ele>474</ele>
      </trkpt>
      <trkpt lat="45.64729" lon="4.67515">
        <ele>474</ele>
      </trkpt>
      <trkpt lat="45.64719" lon="4.67529">
        <ele>474</ele>
      </trkpt>
      <trkpt lat="45.64709" lon="4.67534">
        <ele>474</ele>
      </trkpt>
      <trkpt lat="45.64737" lon="4.67537">
        <ele>474</ele>
      </trkpt>
      <trkpt lat="45.64761" lon="4.67536">
        <ele>474</ele>
      </trkpt>
      <trkpt lat="45.64793" lon="4.67532">
        <ele>468</ele>
      </trkpt>
    </trkseg>
  </trk>
</gpx>